Flight Track Log - Related Links

Times and Time Zones

All times are in EDT time to prevent confusion due to time zone crossing. See the DAL268 flight status page for this flight to view local times or setup timezone preferences in your user account.

Time Position Orientation Groundspeed Altitude Reporting Facility
EDT Latitude Longitude Course Direction KTS MPH feet Rate Location/Type
Mon 09:44:32 PM 40.6450 -73.7680 180° South 74 85  Level FlightAware ADS-B
Mon 09:44:52 PM 40.6360 -73.7750 211° Southwest 145 167 429 Level FlightAware ADS-B
Mon 09:45:14 PM 40.6200 -73.7860 208° Southwest 183 211 300 1,256 Climbing FlightAware ADS-B
Mon 09:45:35 PM 40.6040 -73.7980 210° Southwest 187 215 900 1,667 Climbing FlightAware ADS-B
Mon 09:45:50 PM 40.5910 -73.8040 199° South 201 231 1,300 1,256 Climbing FlightAware ADS-B
Mon 09:46:18 PM 40.5670 -73.7870 152° Southeast 226 260 1,800 1,050 Climbing FlightAware ADS-B
Mon 09:46:30 PM 40.5600 -73.7730 123° Southeast 240 276 2,000 1,135 Climbing FlightAware ADS-B
Mon 09:46:55 PM 40.5470 -73.7410 118° Southeast 259 298 2,500 933 Climbing FlightAware ADS-B
Mon 09:47:15 PM 40.5340 -73.7120 121° Southeast 282 325 2,700 750 Climbing FlightAware ADS-B
Mon 09:47:27 PM 40.5260 -73.6940 120° Southeast 291 335 2,900 1,548 Climbing FlightAware ADS-B
Mon 09:47:46 PM 40.5140 -73.6630 117° Southeast 300 345 3,500 1,674 Climbing FlightAware ADS-B
Mon 09:48:10 PM 40.4990 -73.6240 117° Southeast 319 367 4,100 1,733 Climbing FlightAware ADS-B
Mon 09:48:31 PM 40.4860 -73.5870 115° Southeast 317 365 4,800 1,317 Climbing FlightAware ADS-B
Mon 09:48:51 PM 40.4740 -73.5470 112° Southeast 317 365 5,000 462 Climbing FlightAware ADS-B
Mon 09:48:57 PM 40.4730 -73.5380 98° East 320 368 5,000  Level FlightAware ADS-B
Mon 09:49:05 PM 40.4720 -73.5220 95° East 324 373 5,000  Level FlightAware ADS-B
Mon 09:49:27 PM 40.4770 -73.4770 82° East 331 381 5,000 429 Level FlightAware ADS-B
Mon 09:49:47 PM 40.4850 -73.4400 74° East 332 382 5,300 1,737 Climbing FlightAware ADS-B
Mon 09:50:05 PM 40.4910 -73.4020 78° East 334 384 6,100 2,182 Climbing FlightAware ADS-B
Mon 09:50:31 PM 40.5000 -73.3520 77° East 344 396 6,900 2,087 Climbing FlightAware ADS-B
Mon 09:50:51 PM 40.5070 -73.3100 78° East 349 402 7,700 2,053 Climbing FlightAware ADS-B
Mon 09:51:09 PM 40.5140 -73.2710 77° East 358 412 8,200 2,143 Climbing FlightAware ADS-B
Mon 09:51:33 PM 40.5230 -73.2190 77° East 361 415 9,200 2,455 Climbing FlightAware ADS-B
Mon 09:51:53 PM 40.5310 -73.1760 76° East 363 418 10,000 2,250 Climbing FlightAware ADS-B
Mon 09:52:29 PM 40.5450 -73.0980 77° East 369 425 11,300 1,676 Climbing FlightAware ADS-B
Mon 09:53:01 PM 40.5600 -73.0290 74° East 391 450 11,900 1,176 Climbing FlightAware ADS-B
Mon 09:53:20 PM 40.5710 -72.9821 73° East 399 459 12,300 1,132 Climbing FlightAware ADS-B (KSNC)
Mon 09:53:54 PM 40.5911 -72.9043 71° East 434 499 12,900 1,108 Climbing FlightAware ADS-B (KSNC)
Mon 09:54:25 PM 40.6129 -72.8196 71° East 457 526 13,500 1,108 Climbing FlightAware ADS-B (KSNC)
Mon 09:54:59 PM 40.6357 -72.7306 71° East 478 550 14,100 1,125 Climbing FlightAware ADS-B (KSNC)
Mon 09:55:29 PM 40.6564 -72.6492 71° East 495 570 14,700 1,300 Climbing FlightAware ADS-B (KSNC)
Mon 09:55:59 PM 40.6792 -72.5594 71° East 507 583 15,400 1,676 Climbing FlightAware ADS-B (KSNC)
Mon 09:56:37 PM 40.7080 -72.4445 72° East 512 589 16,600 1,917 Climbing FlightAware ADS-B (KSNC)
Mon 09:57:11 PM 40.7320 -72.3500 71° East 511 588 17,700 2,031 Climbing FlightAware ADS-B
Mon 09:57:42 PM 40.7505 -72.2759 72° East 514 592 18,800 1,846 Climbing FlightAware ADS-B (KSNC)
Mon 09:58:16 PM 40.7800 -72.1530 72° East 518 596 19,700 1,541 Climbing FlightAware ADS-B
Mon 09:58:56 PM 40.8090 -72.0380 72° East 524 603 20,700 1,421 Climbing FlightAware ADS-B
Mon 09:59:32 PM 40.8370 -71.9210 72° East 530 610 21,500 1,391 Climbing FlightAware ADS-B
Mon 10:00:05 PM 40.8630 -71.8190 71° East 535 616 22,300 1,412 Climbing FlightAware ADS-B
Mon 10:00:40 PM 40.8890 -71.7100 72° East 540 621 23,100 1,352 Climbing FlightAware ADS-B
Mon 10:01:16 PM 40.9170 -71.5960 72° East 542 624 23,900 1,235 Climbing FlightAware ADS-B
Mon 10:01:48 PM 40.9410 -71.4910 73° East 548 631 24,500 1,304 Climbing FlightAware ADS-B
Mon 10:02:25 PM 40.9700 -71.3740 72° East 547 629 25,400 1,250 Climbing FlightAware ADS-B
Mon 10:03:00 PM 40.9960 -71.2650 72° East 550 633 26,000 1,235 Climbing FlightAware ADS-B
Mon 10:03:33 PM 41.0190 -71.1690 72° East 546 628 26,800 1,521 Climbing FlightAware ADS-B
Mon 10:04:11 PM 41.0490 -71.0390 73° East 541 623 27,800 1,479 Climbing FlightAware ADS-B
Mon 10:04:46 PM 41.0760 -70.9250 73° East 538 619 28,600 1,059 Climbing FlightAware ADS-B
Mon 10:05:19 PM 41.1000 -70.8210 73° East 543 625 29,000 771 Climbing FlightAware ADS-B
Mon 10:05:56 PM 41.1270 -70.7050 73° East 547 629 29,500 957 Climbing FlightAware ADS-B
Mon 10:06:28 PM 41.1520 -70.5990 73° East 547 629 30,100 1,130 Climbing FlightAware ADS-B
Mon 10:07:05 PM 41.1780 -70.4840 73° East 544 626 30,800 750 Climbing FlightAware ADS-B
Mon 10:07:40 PM 41.2040 -70.3720 73° East 549 632 31,000 169 Climbing FlightAware ADS-B
Mon 10:08:16 PM 41.2300 -70.2560 73° East 547 629 31,000  Level FlightAware ADS-B
Mon 10:08:44 PM 41.2510 -70.1660 73° East 547 629 31,000  Level FlightAware ADS-B
Mon 10:09:31 PM 41.2810 -70.0340 73° East 547 629 31,000  Level FlightAware ADS-B
Mon 10:10:07 PM 41.3040 -69.9350 73° East 547 629 31,000  Level FlightAware ADS-B
Mon 10:10:43 PM 41.3260 -69.8370 73° East 547 629 31,000  Level FlightAware ADS-B
Mon 10:11:19 PM 41.3490 -69.7380 73° East 547 629 31,000  Level FlightAware ADS-B
Mon 10:12:01 PM 41.3750 -69.6230 73° East 547 629 31,000  Level FlightAware ADS-B
Mon 10:12:38 PM 41.3990 -69.5220 72° East 547 629 31,000  Level FlightAware ADS-B
Mon 10:13:15 PM 41.4220 -69.4200 73° East 547 629 31,000  Level FlightAware ADS-B
Mon 10:13:51 PM 41.4440 -69.3210 73° East 547 629 31,000  Level FlightAware ADS-B
Mon 10:14:27 PM 41.4670 -69.2220 73° East 547 629 31,000  Level FlightAware ADS-B
Mon 10:15:03 PM 41.4900 -69.1240 73° East 547 629 31,000  Level FlightAware ADS-B
Mon 10:15:39 PM 41.5120 -69.0250 73° East 547 629 31,000  Level FlightAware ADS-B
Mon 10:16:11 PM 41.2187 -68.6853 139° Southeast 544 626 31,000  Level FlightAware ADS-B (EGHI / SOU)
Mon 10:16:52 PM 41.5580 -68.8240 343° North 547 629 31,000  Level FlightAware ADS-B
Mon 10:17:28 PM 41.5810 -68.7250 73° East 547 629 31,000  Level FlightAware ADS-B
Mon 10:18:04 PM 41.6030 -68.6260 73° East 547 629 31,000  Level FlightAware ADS-B
Mon 10:18:41 PM 41.6270 -68.5240 72° East 547 629 31,000  Level FlightAware ADS-B
Mon 10:19:38 PM 41.1797 -68.0108 72° East 536 617 31,000  Level New York Center
Mon 10:20:38 PM 41.1708 -67.8128 93° East 536 617 31,000  Level New York Center
Mon 10:25:03 PM 41.1167 -67.0000 78° East 538 619 31,000  Level New York Oceanic (ODAPS)
Mon 10:26:37 PM 41.1747 -66.6298 93° East 538 619 31,000  Level FlightAware ADS-B (EGHI / SOU)
Mon 10:27:10 PM 41.1904 -66.5299 78° East 536 617 31,000  Level FlightAware ADS-B (EGHI / SOU)
Mon 10:27:49 PM 41.2096 -66.4080 78° East 534 615 31,000  Level FlightAware ADS-B (EGHI / SOU)
Mon 10:28:21 PM 41.2259 -66.2991 79° East 533 613 31,000  Level FlightAware ADS-B (EGHI / SOU)
Mon 10:29:10 PM 41.2499 -66.1423 78° East 531 611 31,000  Level FlightAware ADS-B (EGHI / SOU)
Mon 10:29:42 PM 41.2653 -66.0369 79° East 532 612 31,000  Level FlightAware ADS-B (EGHI / SOU)
Mon 10:30:12 PM 41.2797 -65.9407 79° East 532 612 31,000  Level FlightAware ADS-B (EGHI / SOU)
Mon 10:30:42 PM 41.2939 -65.8447 78° East 532 612 31,000  Level FlightAware ADS-B (EGHI / SOU)
Mon 10:31:15 PM 41.3094 -65.7419 79° East 532 612 31,000  Level FlightAware ADS-B (EGHI / SOU)
Mon 10:31:51 PM 41.3180 -65.6760 80° East 532 612 31,000  Level FlightAware ADS-B
Mon 10:31:58 PM 41.3294 -65.6043 78° East 531 611 31,000  Level FlightAware ADS-B (EGHI / SOU)
Mon 10:32:40 PM 41.3491 -65.4667 79° East 530 610 31,000  Level FlightAware ADS-B (EGHI / SOU)
Mon 10:33:19 PM 47.3600 -64.5710 North 531 611 31,000  Level FlightAware ADS-B
Mon 10:33:48 PM 47.4810 -64.3950 44° Northeast 31,000  Level FlightAware ADS-B
Mon 10:34:08 PM 47.3870 -64.3560 164° South 529 609 31,000  Level FlightAware ADS-B
Mon 10:34:43 PM 41.4040 -65.0830 185° South 529 609 31,000  Level FlightAware ADS-B
Mon 10:35:32 PM 41.4179 -64.9842 79° East 529 609 31,000  Level FlightAware ADS-B (EGHI / SOU)
Mon 10:36:05 PM 41.4413 -64.8146 79° East 530 610 31,000  Level FlightAware ADS-B (EGHI / SOU)
Mon 10:36:48 PM 41.4500 -64.7333 80° East 532 612 31,000  Level New York Oceanic (ODAPS)
Mon 10:37:08 PM 41.4650 -64.6410 80° East 531 611 31,000  Level FlightAware ADS-B
Mon 10:37:46 PM 41.4850 -64.4970 79° East 530 610 31,000  Level FlightAware ADS-B
Mon 10:37:49 PM 41.4851 -64.4935 89° East 530 610 31,000  Level FlightAware ADS-B (EGHI / SOU)
Mon 10:38:21 PM 41.4990 -64.3900 80° East 531 611 31,000  Level FlightAware ADS-B
Mon 10:38:58 PM 41.5160 -64.2680 79° East 532 612 31,000  Level FlightAware ADS-B
Mon 10:39:37 PM 41.5330 -64.1380 80° East 532 612 31,000  Level FlightAware ADS-B
Mon 10:40:17 PM 41.5470 -64.0280 80° East 532 612 31,000  Level FlightAware ADS-B
Mon 10:40:47 PM 41.5630 -63.9090 80° East 532 612 31,000  Level FlightAware ADS-B
Mon 10:41:22 PM 41.5770 -63.7960 81° East 532 612 31,000  Level FlightAware ADS-B
Mon 10:42:08 PM 41.5930 -63.6700 80° East 532 612 31,000  Level FlightAware ADS-B
Mon 10:42:49 PM 41.6100 -63.5440 80° East 532 612 31,000  Level FlightAware ADS-B
Mon 10:43:37 PM 41.6320 -63.3620 81° East 534 615 31,000  Level FlightAware ADS-B
Mon 10:44:07 PM 41.6440 -63.2680 80° East 534 615 31,000  Level FlightAware ADS-B
Mon 10:44:47 PM 41.6600 -63.1380 81° East 533 613 31,000  Level FlightAware ADS-B
Mon 10:45:27 PM 41.6760 -63.0080 81° East 533 613 31,000  Level FlightAware ADS-B
Mon 10:46:04 PM 41.6890 -62.8980 81° East 532 612 31,000  Level FlightAware ADS-B
Mon 10:46:37 PM 41.7030 -62.7850 81° East 529 609 31,000  Level FlightAware ADS-B
Mon 10:47:20 PM 41.7180 -62.6580 81° East 529 609 31,000  Level FlightAware ADS-B
Mon 10:47:55 PM 41.7310 -62.5450 81° East 528 608 31,000  Level FlightAware ADS-B
Mon 10:48:31 PM 41.7430 -62.4460 81° East 528 608 31,000  Level FlightAware ADS-B
Mon 10:49:19 PM 41.7610 -62.2860 81° East 525 604 31,000  Level FlightAware ADS-B
Mon 10:50:01 PM 41.7800 -62.1260 81° East 524 603 31,000  Level FlightAware ADS-B
Mon 10:50:39 PM 41.7920 -62.0220 81° East 524 603 31,000  Level FlightAware ADS-B
Mon 10:51:15 PM 41.8030 -61.9240 81° East 524 603 31,000  Level FlightAware ADS-B
Mon 10:51:51 PM 41.8150 -61.8250 81° East 524 603 31,000  Level FlightAware ADS-B
Mon 10:52:52 PM 41.8410 -61.5720 82° East 523 602 31,000  Level FlightAware ADS-B
Mon 10:53:35 PM 41.8530 -61.4600 82° East 523 602 31,000  Level FlightAware ADS-B
Mon 10:54:11 PM 41.8630 -61.3620 82° East 523 602 31,000  Level FlightAware ADS-B
Mon 10:54:47 PM 41.8730 -61.2630 82° East 523 602 31,000  Level FlightAware ADS-B
Mon 10:55:24 PM 41.8840 -61.1620 82° East 523 602 31,000  Level FlightAware ADS-B
Mon 10:56:00 PM 41.8940 -61.0640 82° East 523 602 31,000  Level FlightAware ADS-B
Mon 10:56:36 PM 41.9040 -60.9650 82° East 523 602 31,000  Level FlightAware ADS-B
Mon 10:56:55 PM 41.9167 -60.8167 82° East 534 615 31,000  Level New York Oceanic (ODAPS)
Mon 10:57:12 PM 41.9150 -60.8670 81° East 523 602 31,000  Level FlightAware ADS-B
Mon 10:57:48 PM 41.9250 -60.7680 82° East 523 602 31,000  Level FlightAware ADS-B
Mon 10:58:25 PM 41.9360 -60.6670 82° East 523 602 31,000  Level FlightAware ADS-B
Mon 10:59:01 PM 41.9460 -60.5680 82° East 523 602 31,000  Level FlightAware ADS-B
Mon 10:59:37 PM 41.9560 -60.4700 82° East 523 602 31,000  Level FlightAware ADS-B
Mon 11:00:14 PM 41.9670 -60.3680 82° East 523 602 31,000  Level FlightAware ADS-B
Mon 11:00:50 PM 41.9770 -60.2700 82° East 523 602 31,000  Level FlightAware ADS-B
Mon 11:01:26 PM 41.9870 -60.1710 82° East 523 602 31,000  Level FlightAware ADS-B
Mon 11:01:35 PM 42.0000 -60.0000 79° East 518 596 31,000  Level New York Oceanic (ODAPS)
Mon 11:02:03 PM 41.9980 -60.0700 82° East 523 602 31,000  Level FlightAware ADS-B
Mon 11:02:39 PM 42.0080 -59.9710 82° East 523 602 31,000  Level FlightAware ADS-B
Mon 11:05:00 PM 42.0690 -59.5348 79° East  Level FlightAware Approximate
Mon 11:06:00 PM 42.0945 -59.3489 79° East  Level FlightAware Approximate
Mon 11:07:00 PM 42.1594 -58.8642 80° East 518 596 31,000  Level FlightAware Transoceanic
Mon 11:08:00 PM 42.1849 -58.6743 80° East 518 596 31,000  Level FlightAware Transoceanic
Mon 11:09:00 PM 42.2100 -58.4843 80° East 518 596 31,000  Level FlightAware Transoceanic
Mon 11:10:00 PM 42.2349 -58.2941 80° East 518 596 31,000  Level FlightAware Transoceanic
Mon 11:11:00 PM 42.2594 -58.1038 80° East 518 596 31,000  Level FlightAware Transoceanic
Mon 11:12:00 PM 42.2836 -57.9134 80° East 518 596 31,000  Level FlightAware Transoceanic
Mon 11:13:00 PM 42.3075 -57.7228 80° East 518 596 31,000  Level FlightAware Transoceanic
Mon 11:14:00 PM 42.3311 -57.5320 81° East 518 596 31,000  Level FlightAware Transoceanic
Mon 11:15:00 PM 42.3544 -57.3412 81° East 518 596 31,000  Level FlightAware Transoceanic
Mon 11:16:00 PM 42.3774 -57.1501 81° East 518 596 31,000  Level FlightAware Transoceanic
Mon 11:17:00 PM 42.4000 -56.9590 81° East 518 596 31,000  Level FlightAware Transoceanic
Mon 11:17:15 PM 42.4000 -56.9333 81° East 511 588 31,000  Level New York Oceanic (ODAPS)
Mon 11:18:00 PM 42.4223 -56.7677 81° East 518 596 31,000  Level FlightAware Transoceanic
Mon 11:19:00 PM 42.4443 -56.5762 81° East 518 596 31,000  Level FlightAware Transoceanic
Mon 11:20:00 PM 42.4660 -56.3847 81° East 518 596 31,000  Level FlightAware Transoceanic
Mon 11:21:00 PM 42.4874 -56.1930 81° East 518 596 31,000  Level FlightAware Transoceanic
Mon 11:22:00 PM 42.5084 -56.0011 82° East 518 596 31,000  Level FlightAware Transoceanic
Mon 11:23:00 PM 42.5289 -55.7878 82° East 511 588 31,000  Level FlightAware Transoceanic
Mon 11:24:00 PM 42.5493 -55.5964 82° East 511 588 31,000  Level FlightAware Transoceanic
Mon 11:25:00 PM 42.5694 -55.4049 82° East 511 588 31,000  Level FlightAware Transoceanic
Mon 11:26:00 PM 42.5891 -55.2133 82° East 511 588 31,000  Level FlightAware Transoceanic
Mon 11:27:00 PM 42.6085 -55.0215 82° East 511 588 31,000  Level FlightAware Transoceanic
Mon 11:28:00 PM 42.6276 -54.8297 82° East 511 588 31,000  Level FlightAware Transoceanic
Mon 11:29:00 PM 42.6464 -54.6377 82° East 511 588 31,000  Level FlightAware Transoceanic
Mon 11:30:00 PM 42.6648 -54.4456 83° East 511 588 31,000  Level FlightAware Transoceanic
Mon 11:31:00 PM 42.6830 -54.2534 83° East 511 588 31,000  Level FlightAware Transoceanic
Mon 11:32:00 PM 42.7008 -54.0611 83° East 511 588 31,000  Level FlightAware Transoceanic
Mon 11:33:00 PM 42.7183 -53.8686 83° East 511 588 31,000  Level FlightAware Transoceanic
Mon 11:34:00 PM 42.7355 -53.6761 83° East 511 588 31,000  Level FlightAware Transoceanic
Mon 11:35:00 PM 42.7523 -53.4834 83° East 511 588 31,000  Level FlightAware Transoceanic
Mon 11:36:00 PM 42.7688 -53.2907 83° East 511 588 31,000  Level FlightAware Transoceanic
Mon 11:37:00 PM 42.7850 -53.0978 84° East 511 588 31,000  Level FlightAware Transoceanic
Mon 11:37:34 PM 42.8000 -53.0167 84° East 519 597 31,000  Level New York Oceanic (ODAPS)
Mon 11:38:00 PM 42.8009 -52.9049 84° East 511 588 31,000  Level FlightAware Transoceanic
Mon 11:39:00 PM 42.8165 -52.7118 84° East 511 588 31,000  Level FlightAware Transoceanic
Mon 11:40:00 PM 42.8317 -52.5187 84° East 511 588 31,000  Level FlightAware Transoceanic
Mon 11:41:00 PM 42.8466 -52.3255 84° East 511 588 31,000  Level FlightAware Transoceanic
Mon 11:42:00 PM 42.8612 -52.1321 84° East 511 588 31,000  Level FlightAware Transoceanic
Mon 11:43:00 PM 42.8843 -51.8877 85° East 519 597 31,000  Level FlightAware Transoceanic
Mon 11:44:00 PM 42.8972 -51.6993 85° East 519 597 31,000  Level FlightAware Transoceanic
Mon 11:45:00 PM 42.9099 -51.5108 85° East 519 597 31,000  Level FlightAware Transoceanic
Mon 11:46:00 PM 42.9222 -51.3222 85° East 519 597 31,000  Level FlightAware Transoceanic
Mon 11:47:00 PM 42.9343 -51.1335 85° East 519 597 31,000  Level FlightAware Transoceanic
Mon 11:48:00 PM 42.9460 -50.9448 85° East 519 597 31,000  Level FlightAware Transoceanic
Mon 11:49:00 PM 42.9574 -50.7559 85° East 519 597 31,000  Level FlightAware Transoceanic
Mon 11:50:00 PM 42.9685 -50.5671 85° East 519 597 31,000  Level FlightAware Transoceanic
Mon 11:51:00 PM 42.9793 -50.3781 86° East 519 597 31,000  Level FlightAware Transoceanic
Mon 11:52:00 PM 42.9898 -50.1891 86° East 519 597 31,000  Level FlightAware Transoceanic
Mon 11:53:00 PM 43.0000 -50.0000 87° East 519 597 31,000  Level FlightAware Transoceanic
Mon 11:53:25 PM 43.0000 -50.0000 87° East 516 594 31,000  Level New York Oceanic (ODAPS)
Mon 11:54:00 PM 43.0084 -49.8044 87° East 519 597 31,000  Level FlightAware Transoceanic
Mon 11:55:00 PM 43.0164 -49.6087 87° East 519 597 31,000  Level FlightAware Transoceanic
Mon 11:56:00 PM 43.0241 -49.4129 87° East 519 597 31,000  Level FlightAware Transoceanic
Mon 11:57:00 PM 43.0315 -49.2171 87° East 519 597 31,000  Level FlightAware Transoceanic
Mon 11:57:46 PM 43.0333 -49.0833 87° East 509 586 31,000  Level New York Oceanic (ODAPS)
Mon 11:58:00 PM 43.0385 -49.0213 87° East 519 597 31,000  Level FlightAware Transoceanic
Mon 11:59:00 PM 43.0452 -48.8254 87° East 516 594 31,000  Level FlightAware Transoceanic
Tue 12:00:00 AM 43.0516 -48.6295 88° East 516 594 31,000  Level FlightAware Transoceanic
Tue 12:01:00 AM 43.0576 -48.4335 88° East 516 594 31,000  Level FlightAware Transoceanic
Tue 12:02:00 AM 43.0633 -48.2375 88° East 516 594 31,000  Level FlightAware Transoceanic
Tue 12:03:00 AM 43.0687 -48.0415 88° East 516 594 31,000  Level FlightAware Transoceanic
Tue 12:04:00 AM 43.0691 -47.9247 88° East 509 586 31,000  Level FlightAware Transoceanic
Tue 12:05:00 AM 43.0739 -47.7314 88° East 509 586 31,000  Level FlightAware Transoceanic
Tue 12:06:00 AM 43.0784 -47.5382 88° East 509 586 31,000  Level FlightAware Transoceanic
Tue 12:07:00 AM 43.0826 -47.3449 88° East 509 586 31,000  Level FlightAware Transoceanic
Tue 12:08:00 AM 43.0865 -47.1516 89° East 509 586 31,000  Level FlightAware Transoceanic
Tue 12:09:00 AM 43.0900 -46.9583 89° East 509 586 31,000  Level FlightAware Transoceanic
Tue 12:10:00 AM 43.0932 -46.7649 89° East 509 586 31,000  Level FlightAware Transoceanic
Tue 12:11:00 AM 43.0961 -46.5715 89° East 509 586 31,000  Level FlightAware Transoceanic
Tue 12:12:00 AM 43.0986 -46.3781 89° East 509 586 31,000  Level FlightAware Transoceanic
Tue 12:13:00 AM 43.1008 -46.1847 89° East 509 586 31,000  Level FlightAware Transoceanic
Tue 12:14:00 AM 43.1027 -45.9913 89° East 509 586 31,000 1,395 Level FlightAware Transoceanic
Tue 12:14:26 AM 43.1000 -46.0500 89° East 486 559 33,000  Climbing New York Oceanic (ODAPS)
Tue 12:15:00 AM 43.1043 -45.7979 89° East 509 586 31,000 -1,277 Descending FlightAware Transoceanic
Tue 12:16:00 AM 43.1055 -45.6044 90° East 509 586 31,000  Level FlightAware Transoceanic
Tue 12:17:00 AM 43.1064 -45.4110 90° East 509 586 31,000  Level FlightAware Transoceanic
Tue 12:18:00 AM 43.1071 -45.2175 90° East 509 586 31,000 1,818 Level FlightAware Transoceanic
Tue 12:18:06 AM 43.1167 -45.4000 90° East 488 562 33,000  Climbing New York Oceanic (ODAPS)
Tue 12:19:00 AM 43.1073 -45.0241 90° East 509 586 31,000  Descending FlightAware Transoceanic
Tue 12:20:00 AM 43.1055 -44.9490 90° East 486 559 33,000 1,000 Climbing FlightAware Transoceanic
Tue 12:21:00 AM 43.1054 -44.7655 90° East 486 559 33,000  Level FlightAware Transoceanic
Tue 12:22:00 AM 43.1050 -44.5820 90° East 486 559 33,000  Level FlightAware Transoceanic
Tue 12:23:00 AM 43.1044 -44.3985 90° East 486 559 33,000  Level FlightAware Transoceanic
Tue 12:24:00 AM 43.1134 -44.2814 91° East 488 562 33,000  Level FlightAware Transoceanic
Tue 12:25:00 AM 43.1118 -44.0950 91° East 488 562 33,000  Level FlightAware Transoceanic
Tue 12:26:00 AM 43.1099 -43.9086 91° East 488 562 33,000  Level FlightAware Transoceanic
Tue 12:27:00 AM 43.1077 -43.7222 91° East 488 562 33,000  Level FlightAware Transoceanic
Tue 12:28:00 AM 43.1051 -43.5359 91° East 488 562 33,000  Level FlightAware Transoceanic
Tue 12:29:00 AM 43.1023 -43.3495 91° East 488 562 33,000  Level FlightAware Transoceanic
Tue 12:30:00 AM 43.0992 -43.1632 91° East 488 562 33,000  Level FlightAware Transoceanic
Tue 12:31:00 AM 43.0958 -42.9769 92° East 488 562 33,000  Level FlightAware Transoceanic
Tue 12:32:00 AM 43.0921 -42.7906 92° East 488 562 33,000  Level FlightAware Transoceanic
Tue 12:33:00 AM 43.0880 -42.6043 92° East 488 562 33,000  Level FlightAware Transoceanic
Tue 12:34:00 AM 43.0837 -42.4180 92° East 488 562 33,000  Level FlightAware Transoceanic
Tue 12:35:00 AM 43.0791 -42.2318 92° East 488 562 33,000  Level FlightAware Transoceanic
Tue 12:36:00 AM 43.0741 -42.0456 92° East 488 562 33,000  Level FlightAware Transoceanic
Tue 12:37:00 AM 43.0689 -41.8595 92° East 488 562 33,000  Level FlightAware Transoceanic
Tue 12:38:00 AM 43.0634 -41.6734 92° East 488 562 33,000  Level FlightAware Transoceanic
Tue 12:38:26 AM 43.0667 -41.6500 93° East 502 578 33,000  Level New York Oceanic (ODAPS)
Tue 12:39:00 AM 43.0575 -41.4873 93° East 488 562 33,000  Level FlightAware Transoceanic
Tue 12:40:00 AM 43.0514 -41.3012 93° East 488 562 33,000  Level FlightAware Transoceanic
Tue 12:41:00 AM 43.0450 -41.1152 93° East 488 562 33,000  Level FlightAware Transoceanic
Tue 12:42:00 AM 43.0382 -40.9292 93° East 488 562 33,000  Level FlightAware Transoceanic
Tue 12:43:00 AM 43.0312 -40.7433 93° East 488 562 33,000  Level FlightAware Transoceanic
Tue 12:44:00 AM 43.0249 -40.5496 93° East 502 578 33,000  Level FlightAware Transoceanic
Tue 12:45:00 AM 43.0169 -40.3663 93° East 502 578 33,000  Level FlightAware Transoceanic
Tue 12:46:00 AM 43.0086 -40.1832 94° East 502 578 33,000  Level FlightAware Transoceanic
Tue 12:47:00 AM 43.0000 -40.0000 87° East 502 578 33,000  Level FlightAware Transoceanic
Tue 12:48:00 AM 43.0084 -39.8044 87° East 502 578 33,000  Level FlightAware Transoceanic
Tue 12:49:00 AM 43.0164 -39.6087 87° East 502 578 33,000  Level FlightAware Transoceanic
Tue 12:49:00 AM 43.0000 -40.0000 87° East 506 582 33,000  Level ETMS Enhanced Traffic Management System
Tue 12:50:00 AM 43.0241 -39.4129 87° East 502 578 33,000  Level FlightAware Transoceanic
Tue 12:51:00 AM 43.0315 -39.2171 87° East 502 578 33,000  Level FlightAware Transoceanic
Tue 12:52:00 AM 43.0385 -39.0213 87° East 502 578 33,000  Level FlightAware Transoceanic
Tue 12:53:00 AM 43.0452 -38.8254 87° East 502 578 33,000  Level FlightAware Transoceanic
Tue 12:54:00 AM 43.0516 -38.6295 88° East 502 578 33,000  Level FlightAware Transoceanic
Tue 12:55:00 AM 43.0624 -38.2715 88° East 506 582 33,000  Level FlightAware Transoceanic
Tue 12:56:00 AM 43.0677 -38.0792 88° East 506 582 33,000  Level FlightAware Transoceanic
Tue 12:57:00 AM 43.0727 -37.8869 88° East 506 582 33,000  Level FlightAware Transoceanic
Tue 12:58:00 AM 43.0774 -37.6946 88° East 506 582 33,000  Level FlightAware Transoceanic
Tue 12:59:00 AM 43.0817 -37.5022 88° East 506 582 33,000  Level FlightAware Transoceanic
Tue 01:00:00 AM 43.0857 -37.3098 88° East 506 582 33,000  Level FlightAware Transoceanic
Tue 01:01:00 AM 43.0895 -37.1174 89° East 506 582 33,000  Level FlightAware Transoceanic
Tue 01:02:00 AM 43.0928 -36.9250 89° East 506 582 33,000  Level FlightAware Transoceanic
Tue 01:03:00 AM 43.0959 -36.7326 89° East 506 582 33,000  Level FlightAware Transoceanic
Tue 01:04:00 AM 43.0986 -36.5401 89° East 506 582 33,000  Level FlightAware Transoceanic
Tue 01:05:00 AM 43.1011 -36.3476 89° East 506 582 33,000  Level FlightAware Transoceanic
Tue 01:06:00 AM 43.1032 -36.1551 89° East 506 582 33,000  Level FlightAware Transoceanic
Tue 01:07:00 AM 43.1049 -35.9626 89° East 506 582 33,000  Level FlightAware Transoceanic
Tue 01:08:00 AM 43.1064 -35.7701 89° East 506 582 33,000  Level FlightAware Transoceanic
Tue 01:09:00 AM 43.1075 -35.5776 90° East 506 582 33,000  Level FlightAware Transoceanic
Tue 01:10:00 AM 43.1083 -35.3851 90° East 506 582 33,000  Level FlightAware Transoceanic
Tue 01:11:00 AM 43.1088 -35.1925 90° East 506 582 33,000  Level FlightAware Transoceanic
Tue 01:12:00 AM 43.1090 -35.0000 90° East 506 582 33,000  Level FlightAware Transoceanic
Tue 01:13:00 AM 43.1088 -34.8075 90° East 506 582 33,000  Level FlightAware Transoceanic
Tue 01:14:00 AM 43.1083 -34.6149 90° East 506 582 33,000  Level FlightAware Transoceanic
Tue 01:15:00 AM 43.1075 -34.4224 90° East 506 582 33,000  Level FlightAware Transoceanic
Tue 01:16:00 AM 43.1064 -34.2299 91° East 506 582 33,000  Level FlightAware Transoceanic
Tue 01:17:00 AM 43.1049 -34.0374 91° East 506 582 33,000  Level FlightAware Transoceanic
Tue 01:18:00 AM 43.1032 -33.8449 91° East 506 582 33,000  Level FlightAware Transoceanic
Tue 01:19:00 AM 43.1011 -33.6524 91° East 506 582 33,000  Level FlightAware Transoceanic
Tue 01:20:00 AM 43.0986 -33.4599 91° East 506 582 33,000  Level FlightAware Transoceanic
Tue 01:21:00 AM 43.0959 -33.2674 91° East 506 582 33,000  Level FlightAware Transoceanic
Tue 01:22:00 AM 43.0928 -33.0750 91° East 506 582 33,000  Level FlightAware Transoceanic
Tue 01:23:00 AM 43.0895 -32.8826 91° East 506 582 33,000  Level FlightAware Transoceanic
Tue 01:24:00 AM 43.0857 -32.6902 92° East 506 582 33,000  Level FlightAware Transoceanic
Tue 01:25:00 AM 43.0817 -32.4978 92° East 506 582 33,000  Level FlightAware Transoceanic
Tue 01:26:00 AM 43.0774 -32.3054 92° East 506 582 33,000  Level FlightAware Transoceanic
Tue 01:27:00 AM 43.0727 -32.1131 92° East 506 582 33,000  Level FlightAware Transoceanic
Tue 01:28:00 AM 43.0677 -31.9208 92° East 506 582 33,000  Level FlightAware Transoceanic
Tue 01:29:00 AM 43.0624 -31.7285 92° East 506 582 33,000  Level FlightAware Transoceanic
Tue 01:30:00 AM 43.0567 -31.5363 92° East 506 582 33,000  Level FlightAware Transoceanic
Tue 01:31:00 AM 43.0507 -31.3441 92° East 506 582 33,000  Level FlightAware Transoceanic
Tue 01:32:00 AM 43.0445 -31.1520 93° East 506 582 33,000  Level FlightAware Transoceanic
Tue 01:33:00 AM 43.0378 -30.9599 93° East 506 582 33,000  Level FlightAware Transoceanic
Tue 01:34:00 AM 43.0309 -30.7678 93° East 506 582 33,000  Level FlightAware Transoceanic
Tue 01:35:00 AM 43.0237 -30.5758 93° East 506 582 33,000  Level FlightAware Transoceanic
Tue 01:36:00 AM 43.0161 -30.3838 93° East 506 582 33,000  Level FlightAware Transoceanic
Tue 01:37:00 AM 43.0082 -30.1919 93° East 506 582 33,000  Level FlightAware Transoceanic
Tue 01:38:00 AM 43.0000 -30.0003 93° East  Level FlightAware Approximate
Tue 01:39:00 AM 42.9942 -29.8087 92° East  Level FlightAware Approximate
Tue 01:40:00 AM 43.0081 -29.8091 87° East  Level FlightAware Approximate
Tue 01:41:00 AM 43.0159 -29.6173 87° East  Level FlightAware Approximate
Tue 01:42:00 AM 43.0234 -29.4254 87° East  Level FlightAware Approximate
Tue 01:43:00 AM 43.0306 -29.2340 87° East  Level FlightAware Approximate
Tue 01:43:37 AM 43.0290 -29.3000 87° East 520 598 33,000  Level FlightAware ADS-B
Tue 01:44:26 AM 43.0340 -29.1550 87° East 520 598 33,000  Level FlightAware ADS-B
Tue 01:45:02 AM 43.0380 -29.0550 87° East 520 598 33,000  Level FlightAware ADS-B
Tue 01:45:38 AM 43.0420 -28.9540 87° East 520 598 33,000  Level FlightAware ADS-B
Tue 01:46:14 AM 43.0460 -28.8540 87° East 520 598 33,000  Level FlightAware ADS-B
Tue 01:46:51 AM 43.0500 -28.7500 87° East 520 598 33,000  Level FlightAware ADS-B
Tue 01:47:27 AM 43.0540 -28.6500 87° East 520 598 33,000  Level FlightAware ADS-B
Tue 01:48:03 AM 43.0570 -28.5490 88° East 520 598 33,000  Level FlightAware ADS-B
Tue 01:48:39 AM 43.0610 -28.4480 87° East 520 598 33,000  Level FlightAware ADS-B
Tue 01:49:15 AM 43.0650 -28.3480 87° East 520 598 33,000  Level FlightAware ADS-B
Tue 01:49:51 AM 43.0690 -28.2470 87° East 520 598 33,000  Level FlightAware ADS-B
Tue 01:50:27 AM 43.0730 -28.1470 87° East 520 598 33,000  Level FlightAware ADS-B
Tue 01:51:03 AM 43.0770 -28.0460 87° East 520 598 33,000  Level FlightAware ADS-B
Tue 01:51:39 AM 43.0800 -27.9450 88° East 520 598 33,000  Level FlightAware ADS-B
Tue 01:52:15 AM 43.0840 -27.8450 87° East 520 598 33,000  Level FlightAware ADS-B
Tue 01:52:51 AM 43.0880 -27.7440 87° East 520 598 33,000  Level FlightAware ADS-B
Tue 01:53:27 AM 43.0920 -27.6430 87° East 520 598 33,000  Level FlightAware ADS-B
Tue 01:56:00 AM 43.1003 -27.1541 89° East  Level FlightAware Approximate
Tue 01:57:00 AM 43.1030 -26.9623 89° East  Level FlightAware Approximate
Tue 01:58:00 AM 43.1053 -26.7705 89° East  Level FlightAware Approximate
Tue 01:59:00 AM 43.1074 -26.5787 89° East  Level FlightAware Approximate
Tue 02:00:00 AM 43.1091 -26.3869 89° East  Level FlightAware Approximate
Tue 02:01:00 AM 43.1105 -26.1951 89° East  Level FlightAware Approximate
Tue 02:02:00 AM 43.1116 -26.0033 89° East  Level FlightAware Approximate
Tue 02:03:00 AM 43.1123 -25.8114 90° East  Level FlightAware Approximate
Tue 02:04:00 AM 43.1128 -25.6196 90° East  Level FlightAware Approximate
Tue 02:05:00 AM 43.1129 -25.4277 90° East  Level FlightAware Approximate
Tue 02:06:00 AM 43.1127 -25.2359 90° East  Level FlightAware Approximate
Tue 02:07:00 AM 43.1122 -25.0441 90° East  Level FlightAware Approximate
Tue 02:08:00 AM 43.1113 -24.8522 90° East  Level FlightAware Approximate
Tue 02:09:00 AM 43.1101 -24.6604 90° East  Level FlightAware Approximate
Tue 02:10:00 AM 43.1087 -24.4686 91° East  Level FlightAware Approximate
Tue 02:11:00 AM 43.1068 -24.2768 91° East  Level FlightAware Approximate
Tue 02:12:00 AM 43.1047 -24.0849 91° East  Level FlightAware Approximate
Tue 02:13:00 AM 43.1023 -23.8932 91° East  Level FlightAware Approximate
Tue 02:14:00 AM 43.0997 -23.7016 91° East  Level FlightAware Approximate
Tue 02:15:00 AM 43.0974 -23.5098 91° East  Level FlightAware Approximate
Tue 02:16:00 AM 43.0949 -23.3181 91° East  Level FlightAware Approximate
Tue 02:17:00 AM 43.0920 -23.1264 91° East  Level FlightAware Approximate
Tue 02:18:00 AM 43.0888 -22.9346 91° East  Level FlightAware Approximate
Tue 02:19:00 AM 43.0853 -22.7429 91° East  Level FlightAware Approximate
Tue 02:20:00 AM 43.0815 -22.5513 92° East  Level FlightAware Approximate
Tue 02:21:00 AM 43.0773 -22.3596 92° East  Level FlightAware Approximate
Tue 02:22:00 AM 43.0729 -22.1680 92° East  Level FlightAware Approximate
Tue 02:23:00 AM 43.0681 -21.9764 92° East  Level FlightAware Approximate
Tue 02:24:00 AM 43.0630 -21.7848 92° East  Level FlightAware Approximate
Tue 02:25:00 AM 43.0576 -21.5933 92° East  Level FlightAware Approximate
Tue 02:26:00 AM 43.0518 -21.4018 92° East  Level FlightAware Approximate
Tue 02:27:00 AM 43.0458 -21.2103 92° East  Level FlightAware Approximate
Tue 02:28:00 AM 43.0394 -21.0189 93° East  Level FlightAware Approximate
Tue 02:29:00 AM 43.0327 -20.8275 93° East  Level FlightAware Approximate
Tue 02:30:00 AM 43.0257 -20.6362 93° East  Level FlightAware Approximate
Tue 02:31:00 AM 43.0183 -20.4449 93° East  Level FlightAware Approximate
Tue 02:32:00 AM 43.0107 -20.2536 93° East  Level FlightAware Approximate
Tue 02:33:00 AM 43.0027 -20.0624 93° East  Level FlightAware Approximate
Tue 02:34:00 AM 43.0054 -19.8712 87° East  Level FlightAware Approximate
Tue 02:35:00 AM 43.0131 -19.6800 87° East  Level FlightAware Approximate
Tue 02:36:00 AM 43.0205 -19.4887 87° East  Level FlightAware Approximate
Tue 02:37:00 AM 43.0275 -19.2974 87° East  Level FlightAware Approximate
Tue 02:38:00 AM 43.0342 -19.1060 87° East  Level FlightAware Approximate
Tue 02:39:00 AM 43.0407 -18.9146 87° East  Level FlightAware Approximate
Tue 02:40:00 AM 43.0468 -18.7232 87° East  Level FlightAware Approximate
Tue 02:41:00 AM 43.0526 -18.5317 88° East  Level FlightAware Approximate
Tue 02:42:00 AM 43.0580 -18.3402 88° East  Level FlightAware Approximate
Tue 02:43:00 AM 43.0632 -18.1486 88° East  Level FlightAware Approximate
Tue 02:44:00 AM 43.0680 -17.9571 88° East  Level FlightAware Approximate
Tue 02:45:00 AM 43.0725 -17.7655 88° East  Level FlightAware Approximate
Tue 02:46:00 AM 43.0767 -17.5738 88° East  Level FlightAware Approximate
Tue 02:47:00 AM 43.0806 -17.3822 88° East  Level FlightAware Approximate
Tue 02:48:00 AM 43.0841 -17.1905 88° East  Level FlightAware Approximate
Tue 02:49:00 AM 43.0874 -16.9988 89° East  Level FlightAware Approximate
Tue 02:50:00 AM 43.0903 -16.8070 89° East  Level FlightAware Approximate
Tue 02:51:00 AM 43.0929 -16.6153 89° East  Level FlightAware Approximate
Tue 02:52:00 AM 43.0951 -16.4235 89° East  Level FlightAware Approximate
Tue 02:53:00 AM 43.0971 -16.2318 89° East  Level FlightAware Approximate
Tue 02:54:00 AM 43.0987 -16.0400 89° East  Level FlightAware Approximate
Tue 02:55:00 AM 43.1000 -15.8482 89° East  Level FlightAware Approximate
Tue 02:56:00 AM 43.1010 -15.6564 90° East  Level FlightAware Approximate
Tue 02:57:00 AM 43.1017 -15.4646 90° East  Level FlightAware Approximate
Tue 02:58:00 AM 43.1021 -15.2728 90° East  Level FlightAware Approximate
Tue 02:59:00 AM 43.1021 -15.0810 90° East  Level FlightAware Approximate
Tue 03:00:00 AM 43.1018 -14.8892 90° East  Level FlightAware Approximate
Tue 03:01:00 AM 43.1012 -14.6973 90° East  Level FlightAware Approximate
Tue 03:02:00 AM 43.1002 -14.5056 90° East  Level FlightAware Approximate
Tue 03:03:00 AM 43.0990 -14.3138 90° East  Level FlightAware Approximate
Tue 03:04:00 AM 43.0974 -14.1220 91° East  Level FlightAware Approximate
Tue 03:05:00 AM 43.0955 -13.9302 91° East  Level FlightAware Approximate
Tue 03:06:00 AM 43.0933 -13.7385 91° East  Level FlightAware Approximate
Tue 03:07:00 AM 43.0907 -13.5467 91° East  Level FlightAware Approximate
Tue 03:08:00 AM 43.0879 -13.3550 91° East  Level FlightAware Approximate
Tue 03:09:00 AM 43.0847 -13.1633 91° East  Level FlightAware Approximate
Tue 03:10:00 AM 43.0812 -12.9716 91° East  Level FlightAware Approximate
Tue 03:11:00 AM 43.0774 -12.7799 91° East  Level FlightAware Approximate
Tue 03:12:00 AM 43.0733 -12.5883 92° East  Level FlightAware Approximate
Tue 03:13:00 AM 43.0688 -12.3967 92° East  Level FlightAware Approximate
Tue 03:14:00 AM 43.0640 -12.2051 92° East  Level FlightAware Approximate
Tue 03:15:00 AM 43.0589 -12.0135 92° East  Level FlightAware Approximate
Tue 03:16:00 AM 43.0535 -11.8220 92° East  Level FlightAware Approximate
Tue 03:17:00 AM 43.0478 -11.6305 92° East  Level FlightAware Approximate
Tue 03:18:00 AM 43.0418 -11.4390 92° East  Level FlightAware Approximate
Tue 03:19:00 AM 43.0354 -11.2476 93° East  Level FlightAware Approximate
Tue 03:20:00 AM 43.0287 -11.0563 93° East  Level FlightAware Approximate
Tue 03:21:00 AM 43.0217 -10.8653 93° East  Level FlightAware Approximate
Tue 03:21:08 AM 42.9790 -10.2770 93° East 514 592 33,000  Level FlightAware ADS-B
Tue 03:21:43 AM 42.9760 -10.1540 92° East 514 592 33,000 160 Level FlightAware ADS-B
Tue 03:22:23 AM 42.9730 -10.0300 92° East 516 594 33,200 800 Climbing FlightAware ADS-B
Tue 03:22:58 AM 42.9710 -9.9140 91° East 516 594 34,000 738 Climbing FlightAware ADS-B
Tue 03:23:28 AM 42.9680 -9.8130 92° East 514 592 34,000  Level FlightAware ADS-B
Tue 03:24:03 AM 42.9660 -9.7000 91° East 511 588 34,000  Level FlightAware ADS-B
Tue 03:24:38 AM 42.9630 -9.5880 92° East 510 587 34,000  Level FlightAware ADS-B
Tue 03:25:18 AM 42.9600 -9.4590 92° East 509 586 34,000  Level FlightAware ADS-B
Tue 03:25:53 AM 42.9560 -9.3470 93° East 510 587 34,000  Level FlightAware ADS-B
Tue 03:26:23 AM 42.9540 -9.2500 92° East 510 587 34,000  Level FlightAware ADS-B
Tue 03:26:58 AM 42.9500 -9.1380 93° East 510 587 34,000  Level FlightAware ADS-B
Tue 03:27:38 AM 42.9470 -9.0100 92° East 510 587 34,000  Level FlightAware ADS-B
Tue 03:28:11 AM 42.9430 -8.9130 93° East 509 586 34,000  Level FlightAware ADS-B
Tue 03:28:48 AM 42.9390 -8.7850 92° East 509 586 34,000  Level FlightAware ADS-B
Tue 03:29:18 AM 42.9360 -8.6890 92° East 510 587 34,000  Level FlightAware ADS-B
Tue 03:29:53 AM 42.9320 -8.5760 93° East 510 587 34,000  Level FlightAware ADS-B
Tue 03:30:33 AM 42.9270 -8.4480 93° East 511 588 34,000  Level FlightAware ADS-B
Tue 03:31:08 AM 42.9210 -8.3450 95° East 510 587 34,000  Level FlightAware ADS-B
Tue 03:31:40 AM 42.9150 -8.2490 95° East 510 587 34,000  Level FlightAware ADS-B
Tue 03:32:14 AM 42.9080 -8.1270 94° East 510 587 34,000  Level FlightAware ADS-B
Tue 03:32:53 AM 42.9020 -8.0120 94° East 510 587 34,000  Level FlightAware ADS-B
Tue 03:33:23 AM 42.8950 -7.9090 95° East 510 587 34,000  Level FlightAware ADS-B
Tue 03:33:58 AM 42.8870 -7.7910 95° East 510 587 34,000  Level FlightAware ADS-B
Tue 03:34:38 AM 42.8780 -7.6630 95° East 511 588 34,000  Level FlightAware ADS-B
Tue 03:35:16 AM 42.8700 -7.5410 95° East 511 588 34,000  Level FlightAware ADS-B
Tue 03:35:51 AM 42.8620 -7.4290 96° East 511 588 34,000  Level FlightAware ADS-B
Tue 03:36:31 AM 42.8530 -7.3010 95° East 511 588 34,000  Level FlightAware ADS-B
Tue 03:37:01 AM 42.8460 -7.2050 96° East 511 588 34,000  Level FlightAware ADS-B
Tue 03:37:36 AM 42.8380 -7.0930 96° East 511 588 34,000  Level FlightAware ADS-B
Tue 03:38:16 AM 42.8290 -6.9650 95° East 511 588 34,000  Level FlightAware ADS-B
Tue 03:38:46 AM 42.8220 -6.8690 96° East 511 588 34,000  Level FlightAware ADS-B
Tue 03:39:21 AM 42.8130 -6.7570 96° East 512 589 34,000  Level FlightAware ADS-B
Tue 03:40:01 AM 42.8040 -6.6290 95° East 512 589 34,000  Level FlightAware ADS-B
Tue 03:40:31 AM 42.7970 -6.5390 96° East 512 589 34,000  Level FlightAware ADS-B
Tue 03:41:15 AM 42.7850 -6.3950 96° East 513 590 34,000  Level FlightAware ADS-B
Tue 03:41:50 AM 42.7770 -6.2830 96° East 513 590 34,000  Level FlightAware ADS-B
Tue 03:42:25 AM 42.7680 -6.1710 96° East 514 592 34,000  Level FlightAware ADS-B
Tue 03:43:00 AM 42.7580 -6.0550 97° East 514 592 34,000  Level FlightAware ADS-B
Tue 03:43:34 AM 42.7490 -5.9430 96° East 514 592 34,000  Level FlightAware ADS-B
Tue 03:44:10 AM 42.7400 -5.8310 96° East 514 592 34,000  Level FlightAware ADS-B
Tue 03:44:45 AM 42.7300 -5.7210 97° East 515 593 34,000  Level FlightAware ADS-B
Tue 03:45:20 AM 42.7210 -5.6090 96° East 515 593 34,000  Level FlightAware ADS-B
Tue 03:45:55 AM 42.7110 -5.4930 97° East 516 594 34,000  Level FlightAware ADS-B
Tue 03:46:30 AM 42.7010 -5.3810 97° East 515 593 34,000  Level FlightAware ADS-B
Tue 03:47:05 AM 42.6910 -5.2690 97° East 514 592 34,000  Level FlightAware ADS-B
Tue 03:47:40 AM 42.6810 -5.1610 97° East 514 592 34,000  Level FlightAware ADS-B
Tue 03:48:21 AM 42.6690 -5.0260 97° East 511 588 34,000  Level FlightAware ADS-B
Tue 03:48:56 AM 42.6600 -4.9240 97° East 511 588 34,000  Level FlightAware ADS-B
Tue 03:49:31 AM 42.6490 -4.8040 97° East 510 587 34,000  Level FlightAware ADS-B
Tue 03:50:06 AM 42.6380 -4.6920 98° East 510 587 34,000  Level FlightAware ADS-B
Tue 03:50:41 AM 42.6280 -4.5820 97° East 510 587 34,000  Level FlightAware ADS-B
Tue 03:51:16 AM 42.6180 -4.4740 97° East 510 587 34,000  Level FlightAware ADS-B
Tue 03:51:51 AM 42.6070 -4.3600 97° East 509 586 34,000  Level FlightAware ADS-B
Tue 03:52:26 AM 42.5960 -4.2490 98° East 509 586 34,000  Level FlightAware ADS-B
Tue 03:53:01 AM 42.5850 -4.1380 98° East 508 585 34,000  Level FlightAware ADS-B
Tue 03:53:36 AM 42.5750 -4.0310 97° East 508 585 34,000  Level FlightAware ADS-B
Tue 03:54:16 AM 42.5620 -3.9050 98° East 508 585 34,000  Level FlightAware ADS-B
Tue 03:54:56 AM 42.5490 -3.7760 98° East 508 585 34,000  Level FlightAware ADS-B
Tue 03:55:26 AM 42.5390 -3.6810 98° East 508 585 34,000  Level FlightAware ADS-B
Tue 03:56:01 AM 42.5270 -3.5700 98° East 509 586 34,000  Level FlightAware ADS-B
Tue 03:56:41 AM 42.5140 -3.4440 98° East 509 586 34,000  Level FlightAware ADS-B
Tue 03:57:16 AM 42.5030 -3.3370 98° East 509 586 34,000  Level FlightAware ADS-B
Tue 03:57:46 AM 42.4920 -3.2400 99° East 509 586 34,000  Level FlightAware ADS-B
Tue 03:58:21 AM 42.4810 -3.1290 98° East 510 587 34,000  Level FlightAware ADS-B
Tue 03:59:01 AM 42.4670 -3.0090 99° East 511 588 34,000  Level FlightAware ADS-B
Tue 03:59:31 AM 42.4560 -2.9110 99° East 512 589 34,000  Level FlightAware ADS-B
Tue 04:00:11 AM 42.4350 -2.7930 104° East 513 590 34,000  Level FlightAware ADS-B
Tue 04:00:41 AM 42.4140 -2.6910 106° East 513 590 34,000  Level FlightAware ADS-B
Tue 04:01:16 AM 42.3930 -2.5890 106° East 513 590 34,000  Level FlightAware ADS-B
Tue 04:02:08 AM 42.3630 -2.4370 105° East 513 590 34,000  Level FlightAware ADS-B
Tue 04:02:43 AM 42.3360 -2.3140 107° East 515 593 34,000  Level FlightAware ADS-B
Tue 04:03:16 AM 42.3150 -2.2150 106° East 514 592 34,000  Level FlightAware ADS-B
Tue 04:03:54 AM 42.2900 -2.0940 106° East 514 592 34,000  Level FlightAware ADS-B
Tue 04:04:31 AM 42.2650 -1.9780 106° East 513 590 34,000  Level FlightAware ADS-B
Tue 04:05:01 AM 42.2450 -1.8850 106° East 514 592 34,000  Level FlightAware ADS-B
Tue 04:05:38 AM 42.2210 -1.7740 106° East 515 593 34,000  Level FlightAware ADS-B
Tue 04:06:13 AM 42.1970 -1.6670 107° East 515 593 34,000  Level FlightAware ADS-B
Tue 04:06:50 AM 42.1730 -1.5530 106° East 515 593 34,000  Level FlightAware ADS-B
Tue 04:07:21 AM 42.1520 -1.4570 106° East 514 592 34,000  Level FlightAware ADS-B
Tue 04:07:58 AM 42.1280 -1.3440 106° East 513 590 34,000  Level FlightAware ADS-B
Tue 04:08:33 AM 42.1040 -1.2360 107° East 513 590 34,000  Level FlightAware ADS-B
Tue 04:09:09 AM 42.0790 -1.1230 107° East 513 590 34,000  Level FlightAware ADS-B
Tue 04:09:42 AM 42.0570 -1.0260 107° East 512 589 34,000  Level FlightAware ADS-B
Tue 04:10:19 AM 42.0320 -0.9130 107° East 511 588 34,000  Level FlightAware ADS-B
Tue 04:10:51 AM 42.0100 -0.8160 107° East 511 588 34,000  Level FlightAware ADS-B
Tue 04:11:29 AM 41.9840 -0.7000 107° East 512 589 34,000  Level FlightAware ADS-B
Tue 04:11:58 AM 41.9650 -0.6150 107° East 513 590 34,000  Level FlightAware ADS-B
Tue 04:12:35 AM 41.9380 -0.4990 107° East 513 590 34,000  Level FlightAware ADS-B
Tue 04:13:13 AM 41.9120 -0.3860 107° East 514 592 34,000  Level FlightAware ADS-B
Tue 04:13:44 AM 41.8890 -0.2860 107° East 514 592 34,000  Level FlightAware ADS-B
Tue 04:14:21 AM 41.8630 -0.1730 107° East 514 592 34,000  Level FlightAware ADS-B
Tue 04:14:54 AM 41.8400 -0.0750 107° East 515 593 34,000  Level FlightAware ADS-B
Tue 04:15:24 AM 41.8190 0.0190 107° East 515 593 34,000  Level FlightAware ADS-B
Tue 04:16:03 AM 41.7910 0.1370 108° East 514 592 34,000  Level FlightAware ADS-B
Tue 04:16:40 AM 41.7640 0.2500 108° East 514 592 34,000  Level FlightAware ADS-B
Tue 04:17:15 AM 41.7400 0.3530 107° East 514 592 34,000  Level FlightAware ADS-B
Tue 04:17:51 AM 41.7130 0.4650 108° East 514 592 34,000  Level FlightAware ADS-B
Tue 04:17:55 AM 41.7103 0.4771 106° East 514 592 34,000  Level FlightAware ADS-B (YBCS / CNS)
Tue 04:18:25 AM 41.6900 0.5650 107° East 515 593 34,000  Level FlightAware ADS-B
Tue 04:18:33 AM 41.6829 0.5920 109° East 516 594 34,000  Level FlightAware ADS-B (YBCS / CNS)
Tue 04:19:09 AM 41.6567 0.7013 108° East 516 594 34,000  Level FlightAware ADS-B (YBCS / CNS)
Tue 04:19:40 AM 41.6322 0.7949 109° East 518 596 34,000  Level FlightAware ADS-B (YBCS / CNS)
Tue 04:20:19 AM 41.6012 0.9124 109° East 518 596 34,000  Level FlightAware ADS-B (YBCS / CNS)
Tue 04:20:50 AM 41.5765 1.0058 109° East 518 596 34,000  Level FlightAware ADS-B (YBCS / CNS)
Tue 04:21:20 AM 41.5540 1.0930 109° East 517 595 34,000  Level FlightAware ADS-B
Tue 04:21:29 AM 41.5456 1.1231 110° East 517 595 34,000  Level FlightAware ADS-B (YBCS / CNS)
Tue 04:22:00 AM 41.5225 1.2170 108° East 516 594 34,000  Level FlightAware ADS-B (YBCS / CNS)
Tue 04:22:39 AM 41.4957 1.3353 107° East 514 592 34,000  Level FlightAware ADS-B (YBCS / CNS)
Tue 04:23:10 AM 41.4747 1.4293 107° East 514 592 34,000  Level FlightAware ADS-B (YBCS / CNS)
Tue 04:23:49 AM 41.4473 1.5472 107° East 514 592 34,000  Level FlightAware ADS-B (YBCS / CNS)
Tue 04:24:19 AM 41.4259 1.6379 107° East 513 590 34,000  Level FlightAware ADS-B (YBCS / CNS)
Tue 04:24:50 AM 41.4045 1.7284 107° East 515 593 34,000  Level FlightAware ADS-B (YBCS / CNS)
Tue 04:25:29 AM 41.3736 1.8481 109° East 516 594 34,000  Level FlightAware ADS-B (YBCS / CNS)
Tue 04:26:00 AM 41.3498 1.9412 109° East 515 593 34,000  Level FlightAware ADS-B (YBCS / CNS)
Tue 04:26:34 AM 41.3239 2.0428 109° East 514 592 34,000  Level FlightAware ADS-B (YBCS / CNS)
Tue 04:27:11 AM 41.2990 2.1510 107° East 511 588 34,000  Level FlightAware ADS-B
Tue 04:27:46 AM 41.2810 2.2550 103° East 507 583 34,000  Level FlightAware ADS-B
Tue 04:28:21 AM 41.2650 2.3620 101° East 507 583 34,000  Level FlightAware ADS-B
Tue 04:29:02 AM 41.2450 2.4860 102° East 505 581 34,000  Level FlightAware ADS-B
Tue 04:29:37 AM 41.2260 2.5980 103° East 503 579 34,000  Level FlightAware ADS-B
Tue 04:30:14 AM 41.2070 2.7100 103° East 504 580 34,000  Level FlightAware ADS-B
Tue 04:30:47 AM 41.1910 2.8030 103° East 505 581 34,000  Level FlightAware ADS-B
Tue 04:31:20 AM 41.1740 2.9030 103° East 505 581 34,000  Level FlightAware ADS-B
Tue 04:31:59 AM 41.1550 3.0120 103° East 506 582 34,000  Level FlightAware ADS-B
Tue 04:32:27 AM 41.1410 3.0970 102° East 506 582 34,000  Level FlightAware ADS-B
Tue 04:33:07 AM 41.1210 3.2120 103° East 508 585 34,000  Level FlightAware ADS-B
Tue 04:33:39 AM 41.1000 3.3300 103° East 509 586 34,000  Level FlightAware ADS-B
Tue 04:34:16 AM 41.0810 3.4360 103° East 508 585 34,000  Level FlightAware ADS-B
Tue 04:34:50 AM 41.0650 3.5240 104° East 508 585 34,000  Level FlightAware ADS-B
Tue 04:35:28 AM 41.0480 3.6220 103° East 508 585 34,000  Level FlightAware ADS-B
Tue 04:36:04 AM 41.0320 3.7150 103° East 508 585 34,000  Level FlightAware ADS-B
Tue 04:36:40 AM 41.0160 3.8080 103° East 508 585 34,000  Level FlightAware ADS-B
Tue 04:37:16 AM 41.0000 3.9000 103° East 508 585 34,000  Level FlightAware ADS-B
Tue 04:37:53 AM 40.9830 3.9960 103° East 508 585 34,000  Level FlightAware ADS-B
Tue 04:38:29 AM 40.9670 4.0890 103° East 508 585 34,000  Level FlightAware ADS-B
Tue 04:39:05 AM 40.9510 4.1810 103° East 508 585 34,000  Level FlightAware ADS-B
Tue 04:40:18 AM 40.8860 4.5110 105° East 508 585 34,000  Level FlightAware ADS-B
Tue 04:41:03 AM 40.8640 4.6350 103° East 506 582 34,000  Level FlightAware ADS-B
Tue 04:41:40 AM 40.8480 4.7300 103° East 506 582 34,000  Level FlightAware ADS-B
Tue 04:42:17 AM 40.8310 4.8250 103° East 506 582 34,000  Level FlightAware ADS-B
Tue 04:42:53 AM 40.8150 4.9170 103° East 506 582 34,000  Level FlightAware ADS-B
Tue 04:43:30 AM 40.7980 5.0120 103° East 506 582 34,000  Level FlightAware ADS-B
Tue 04:44:07 AM 40.7820 5.1060 103° East 506 582 34,000  Level FlightAware ADS-B
Tue 04:44:43 AM 40.7660 5.1990 103° East 506 582 34,000  Level FlightAware ADS-B
Tue 04:45:19 AM 40.7500 5.2910 103° East 506 582 34,000  Level FlightAware ADS-B
Tue 04:45:55 AM 40.7330 5.3830 104° East 506 582 34,000  Level FlightAware ADS-B
Tue 04:46:31 AM 40.7170 5.4750 103° East 506 582 34,000 1,622 Level FlightAware ADS-B
Tue 04:47:03 AM 40.9090 5.7580 48° Northeast 36,000 3,158 Climbing FlightAware ADS-B
Tue 04:47:09 AM 40.9100 5.7670 82° East 496 571 36,000  Level FlightAware ADS-B
Tue 04:47:49 AM 40.9260 5.8680 78° East 496 571 36,000  Level FlightAware ADS-B
Tue 04:48:29 AM 40.9430 5.9910 80° East 499 574 36,000  Level FlightAware ADS-B
Tue 04:49:04 AM 40.9290 6.1230 98° East 508 585 36,000  Level FlightAware ADS-B
Tue 04:49:40 AM 40.9250 6.2350 93° East 508 585 36,000  Level FlightAware ADS-B
Tue 04:50:15 AM 40.9210 6.3430 93° East 508 585 36,000  Level FlightAware ADS-B
Tue 04:50:50 AM 40.9030 6.4500 103° East 512 589 36,000  Level FlightAware ADS-B
Tue 04:51:24 AM 40.8830 6.5530 104° East 509 586 36,000  Level FlightAware ADS-B
Tue 04:52:00 AM 40.8630 6.6590 104° East 509 586 36,000  Level FlightAware ADS-B
Tue 04:52:34 AM 40.8440 6.7620 104° East 509 586 36,000  Level FlightAware ADS-B
Tue 04:53:09 AM 40.8240 6.8710 104° East 510 587 36,000  Level FlightAware ADS-B
Tue 04:53:45 AM 40.8040 6.9770 104° East 510 587 36,000  Level FlightAware ADS-B
Tue 04:54:19 AM 40.7840 7.0860 104° East 509 586 36,000  Level FlightAware ADS-B
Tue 04:54:54 AM 40.7650 7.1920 103° East 511 588 36,000  Level FlightAware ADS-B
Tue 04:55:29 AM 40.7460 7.2990 103° East 510 587 36,000  Level FlightAware ADS-B
Tue 04:56:04 AM 40.7280 7.4010 103° East 508 585 36,000  Level FlightAware ADS-B
Tue 04:56:39 AM 40.7140 7.5120 99° East 510 587 36,000  Level FlightAware ADS-B
Tue 04:57:14 AM 40.6990 7.6180 101° East 510 587 36,000  Level FlightAware ADS-B
Tue 04:57:49 AM 40.6800 7.7240 103° East 507 583 36,000  Level FlightAware ADS-B
Tue 04:58:25 AM 40.6620 7.8330 102° East 509 586 36,000  Level FlightAware ADS-B
Tue 04:59:00 AM 40.6440 7.9390 103° East 510 587 36,000  Level FlightAware ADS-B
Tue 04:59:35 AM 40.6270 8.0420 102° East 510 587 36,000  Level FlightAware ADS-B
Tue 05:00:11 AM 40.6140 8.1520 99° East 510 587 36,000  Level FlightAware ADS-B
Tue 05:00:45 AM 40.6000 8.2560 100° East 509 586 36,000  Level FlightAware ADS-B
Tue 05:01:20 AM 40.5850 8.3660 100° East 510 587 36,000  Level FlightAware ADS-B
Tue 05:01:56 AM 40.5690 8.4730 101° East 511 588 36,000  Level FlightAware ADS-B
Tue 05:02:36 AM 40.5510 8.5980 101° East 512 589 36,000  Level FlightAware ADS-B
Tue 05:03:11 AM 40.5360 8.7050 100° East 513 590 36,000  Level FlightAware ADS-B
Tue 05:03:46 AM 40.5200 8.8120 101° East 513 590 36,000 169 Level FlightAware ADS-B
Tue 05:04:22 AM 40.5040 8.9200 101° East 515 593 36,200 676 Climbing FlightAware ADS-B
Tue 05:04:57 AM 40.4880 9.0300 101° East 516 594 36,800 676 Climbing FlightAware ADS-B
Tue 05:05:33 AM 40.4720 9.1380 101° East 519 597 37,000 171 Climbing FlightAware ADS-B
Tue 05:06:07 AM 40.4570 9.2460 100° East 519 597 37,000  Level FlightAware ADS-B
Tue 05:06:43 AM 40.4400 9.3540 102° East 519 597 37,000  Level FlightAware ADS-B
Tue 05:07:17 AM 40.4240 9.4620 101° East 520 598 37,000  Level FlightAware ADS-B
Tue 05:07:53 AM 40.4070 9.5710 102° East 521 600 37,000  Level FlightAware ADS-B
Tue 05:08:27 AM 40.3910 9.6790 101° East 522 601 37,000  Level FlightAware ADS-B
Tue 05:09:03 AM 40.3740 9.7880 102° East 521 600 37,000  Level FlightAware ADS-B
Tue 05:09:37 AM 40.3570 9.8960 102° East 520 598 37,000  Level FlightAware ADS-B
Tue 05:10:13 AM 40.3410 10.0040 101° East 519 597 37,000  Level FlightAware ADS-B
Tue 05:10:47 AM 40.3240 10.1120 102° East 520 598 37,000  Level FlightAware ADS-B
Tue 05:11:23 AM 40.3070 10.2210 102° East 521 600 37,000  Level FlightAware ADS-B
Tue 05:12:02 AM 40.2870 10.3450 102° East 523 602 37,000  Level FlightAware ADS-B
Tue 05:12:38 AM 40.2690 10.4530 102° East 523 602 37,000  Level FlightAware ADS-B
Tue 05:13:13 AM 40.2510 10.5680 102° East 524 603 37,000  Level FlightAware ADS-B
Tue 05:13:49 AM 40.2340 10.6740 102° East 523 602 37,000  Level FlightAware ADS-B
Tue 05:14:23 AM 40.2160 10.7860 102° East 523 602 37,000  Level FlightAware ADS-B
Tue 05:14:59 AM 40.1990 10.8910 102° East 522 601 37,000  Level FlightAware ADS-B
Tue 05:15:33 AM 40.1810 10.9960 103° East 520 598 37,000  Level FlightAware ADS-B
Tue 05:16:09 AM 40.1620 11.1100 102° East 520 598 37,000  Level FlightAware ADS-B
Tue 05:16:48 AM 40.1430 11.2230 102° East 520 598 37,000  Level FlightAware ADS-B
Tue 05:17:26 AM 40.1230 11.3430 102° East 521 600 37,000  Level FlightAware ADS-B
Tue 05:18:00 AM 40.1050 11.4510 102° East 519 597 37,000  Level FlightAware ADS-B
Tue 05:18:34 AM 40.0880 11.5540 102° East 518 596 37,000  Level FlightAware ADS-B
Tue 05:19:12 AM 40.0680 11.6700 103° East 517 595 37,000  Level FlightAware ADS-B
Tue 05:19:48 AM 40.0490 11.7790 103° East 514 592 37,000  Level FlightAware ADS-B
Tue 05:20:22 AM 40.0310 11.8820 103° East 514 592 37,000  Level FlightAware ADS-B
Tue 05:20:56 AM 40.0130 11.9820 103° East 514 592 37,000  Level FlightAware ADS-B
Tue 05:21:32 AM 39.9940 12.0930 103° East 515 593 37,000  Level FlightAware ADS-B
Tue 05:22:06 AM 39.9760 12.1930 103° East 516 594 37,000  Level FlightAware ADS-B
Tue 05:22:40 AM 39.9570 12.3020 103° East 516 594 37,000  Level FlightAware ADS-B
Tue 05:23:17 AM 39.9380 12.4110 103° East 517 595 37,000  Level FlightAware ADS-B
Tue 05:23:52 AM 39.9190 12.5140 103° East 516 594 37,000  Level FlightAware ADS-B
Tue 05:24:24 AM 39.9010 12.6140 103° East 515 593 37,000  Level FlightAware ADS-B
Tue 05:25:02 AM 39.8810 12.7250 103° East 514 592 37,000  Level FlightAware ADS-B
Tue 05:25:36 AM 39.8620 12.8280 103° East 514 592 37,000  Level FlightAware ADS-B
Tue 05:26:13 AM 39.8410 12.9420 103° East 513 590 37,000  Level FlightAware ADS-B
Tue 05:26:45 AM 39.8240 13.0380 103° East 513 590 37,000  Level FlightAware ADS-B
Tue 05:27:21 AM 39.8030 13.1490 104° East 512 589 37,000  Level FlightAware ADS-B
Tue 05:27:57 AM 39.7830 13.2560 104° East 512 589 37,000  Level FlightAware ADS-B
Tue 05:28:33 AM 39.7630 13.3610 104° East 513 590 37,000  Level FlightAware ADS-B
Tue 05:29:05 AM 39.7460 13.4570 103° East 513 590 37,000  Level FlightAware ADS-B
Tue 05:29:43 AM 39.7230 13.5740 104° East 514 592 37,000  Level FlightAware ADS-B
Tue 05:30:19 AM 39.7030 13.6790 104° East 516 594 37,000  Level FlightAware ADS-B
Tue 05:30:51 AM 39.6850 13.7750 104° East 516 594 37,000  Level FlightAware ADS-B
Tue 05:31:27 AM 39.6640 13.8860 104° East 515 593 37,000  Level FlightAware ADS-B
Tue 05:32:01 AM 39.6440 13.9880 104° East 515 593 37,000  Level FlightAware ADS-B
Tue 05:32:33 AM 39.6250 14.0830 105° East 515 593 37,000  Level FlightAware ADS-B
Tue 05:33:11 AM 39.6050 14.1880 104° East 515 593 37,000  Level FlightAware ADS-B
Tue 05:33:47 AM 39.5820 14.3020 105° East 518 596 37,000  Level FlightAware ADS-B
Tue 05:34:19 AM 39.5640 14.3980 104° East 519 597 37,000  Level FlightAware ADS-B
Tue 05:34:55 AM 39.5430 14.5030 105° East 519 597 37,000  Level FlightAware ADS-B
Tue 05:35:32 AM 39.5200 14.6150 105° East 519 597 37,000  Level FlightAware ADS-B
Tue 05:36:08 AM 39.4980 14.7260 104° East 519 597 37,000  Level FlightAware ADS-B
Tue 05:36:44 AM 39.4760 14.8340 105° East 519 597 37,000  Level FlightAware ADS-B
Tue 05:37:16 AM 39.4560 14.9330 105° East 518 596 37,000  Level FlightAware ADS-B
Tue 05:37:54 AM 39.4330 15.0440 105° East 518 596 37,000  Level FlightAware ADS-B
Tue 05:38:26 AM 39.4140 15.1370 105° East 519 597 37,000  Level FlightAware ADS-B
Tue 05:39:02 AM 39.3920 15.2470 104° East 518 596 37,000  Level FlightAware ADS-B
Tue 05:39:39 AM 39.3690 15.3580 105° East 517 595 37,000  Level FlightAware ADS-B
Tue 05:40:11 AM 39.3490 15.4530 105° East 517 595 37,000  Level FlightAware ADS-B
Tue 05:40:46 AM 39.3280 15.5550 105° East 518 596 37,000  Level FlightAware ADS-B
Tue 05:41:23 AM 39.3040 15.6680 105° East 517 595 37,000  Level FlightAware ADS-B
Tue 05:41:55 AM 39.2840 15.7630 105° East 515 593 37,000  Level FlightAware ADS-B
Tue 05:42:31 AM 39.2610 15.8700 105° East 514 592 37,000  Level FlightAware ADS-B
Tue 05:43:07 AM 39.2380 15.9790 105° East 510 587 37,000  Level FlightAware ADS-B
Tue 05:43:39 AM 39.2180 16.0720 105° East 506 582 37,000  Level FlightAware ADS-B
Tue 05:44:16 AM 39.1960 16.1730 106° East 504 580 37,000  Level FlightAware ADS-B
Tue 05:44:51 AM 39.1740 16.2770 105° East 501 577 37,000  Level FlightAware ADS-B
Tue 05:45:27 AM 39.1510 16.3830 106° East 498 573 37,000  Level FlightAware ADS-B
Tue 05:46:03 AM 39.1270 16.4850 107° East 494 568 37,000  Level FlightAware ADS-B
Tue 05:46:35 AM 39.1060 16.5750 107° East 493 567 37,000  Level FlightAware ADS-B
Tue 05:47:12 AM 39.0830 16.6760 106° East 492 566 37,000  Level FlightAware ADS-B
Tue 05:47:43 AM 39.0630 16.7630 106° East 490 564 37,000  Level FlightAware ADS-B
Tue 05:48:21 AM 39.0380 16.8680 107° East 490 564 37,000  Level FlightAware ADS-B
Tue 05:48:57 AM 39.0150 16.9690 106° East 489 563 37,000  Level FlightAware ADS-B
Tue 05:49:33 AM 38.9900 17.0720 107° East 489 563 37,000  Level FlightAware ADS-B
Tue 05:50:05 AM 38.9700 17.1580 107° East 490 564 37,000  Level FlightAware ADS-B
Tue 05:50:41 AM 38.9460 17.2620 106° East 493 567 37,000  Level FlightAware ADS-B
Tue 05:51:18 AM 38.9220 17.3600 107° East 495 570 37,000  Level FlightAware ADS-B
Tue 05:51:53 AM 38.8980 17.4640 106° East 494 568 37,000  Level FlightAware ADS-B
Tue 05:52:25 AM 38.8770 17.5500 107° East 493 567 37,000  Level FlightAware ADS-B
Tue 05:53:03 AM 38.8510 17.6590 107° East 492 566 37,000  Level FlightAware ADS-B
Tue 05:53:39 AM 38.8270 17.7570 107° East 492 566 37,000  Level FlightAware ADS-B
Tue 05:54:11 AM 38.8050 17.8460 108° East 494 568 37,000  Level FlightAware ADS-B
Tue 05:54:45 AM 38.7820 17.9410 107° East 495 570 37,000  Level FlightAware ADS-B
Tue 05:55:23 AM 38.7590 18.0450 106° East 495 570 37,000  Level FlightAware ADS-B
Tue 05:55:55 AM 38.7520 18.1450 95° East 498 573 37,000  Level FlightAware ADS-B
Tue 05:56:31 AM 38.7420 18.2500 97° East 497 572 37,000  Level FlightAware ADS-B
Tue 05:57:09 AM 38.7250 18.3570 101° East 496 571 37,000  Level FlightAware ADS-B
Tue 05:57:41 AM 38.7080 18.4510 103° East 496 571 37,000  Level FlightAware ADS-B
Tue 05:58:13 AM 38.6900 18.5420 104° East 497 572 37,000  Level FlightAware ADS-B
Tue 05:58:51 AM 38.6660 18.6500 106° East 502 578 37,000  Level FlightAware ADS-B
Tue 05:59:27 AM 38.6440 18.7530 105° East 504 580 37,000  Level FlightAware ADS-B
Tue 06:00:01 AM 38.6230 18.8490 106° East 507 583 37,000  Level FlightAware ADS-B
Tue 06:00:35 AM 38.6070 18.9150 107° East 508 585 37,000  Level FlightAware ADS-B
Tue 06:01:08 AM 38.5880 19.0040 105° East 509 586 37,000  Level FlightAware ADS-B
Tue 06:01:44 AM 38.5570 19.1430 106° East 509 586 37,000  Level FlightAware ADS-B
Tue 06:02:28 AM 38.5290 19.2460 109° East 512 589 37,000  Level FlightAware ADS-B
Tue 06:03:00 AM 38.4990 19.3410 112° Southeast 512 589 37,000  Level FlightAware ADS-B
Tue 06:03:40 AM 38.4650 19.4480 112° Southeast 513 590 37,000  Level FlightAware ADS-B
Tue 06:04:13 AM 38.4370 19.5440 110° East 512 589 37,000  Level FlightAware ADS-B
Tue 06:04:45 AM 38.4100 19.6310 112° Southeast 511 588 37,000  Level FlightAware ADS-B
Tue 06:05:17 AM 38.3820 19.7200 112° Southeast 510 587 37,000  Level FlightAware ADS-B
Tue 06:05:55 AM 38.3470 19.8290 112° Southeast 509 586 37,000  Level FlightAware ADS-B
Tue 06:06:35 AM 38.3130 19.9370 112° Southeast 508 585 37,000  Level FlightAware ADS-B
Tue 06:07:07 AM 38.2840 20.0280 112° Southeast 507 583 37,000  Level FlightAware ADS-B
Tue 06:08:00 AM 38.2310 20.1960 112° Southeast 504 580 37,000  Level FlightAware ADS-B
Tue 06:08:31 AM 38.2040 20.2810 112° Southeast 503 579 37,000  Level FlightAware ADS-B
Tue 06:09:06 AM 38.1760 20.3660 113° Southeast 503 579 37,000  Level FlightAware ADS-B
Tue 06:09:44 AM 38.1390 20.4810 112° Southeast 501 577 37,000  Level FlightAware ADS-B
Tue 06:10:17 AM 38.1110 20.5710 112° Southeast 501 577 37,000  Level FlightAware ADS-B
Tue 06:10:51 AM 38.0850 20.6500 113° Southeast 501 577 37,000  Level FlightAware ADS-B
Tue 06:11:26 AM 38.0600 20.7320 111° Southeast 501 577 37,000  Level FlightAware ADS-B
Tue 06:12:02 AM 38.0220 20.8450 113° Southeast 497 572 37,000  Level FlightAware ADS-B
Tue 06:12:35 AM 38.0100 20.8800 114° Southeast 499 574 37,000  Level FlightAware ADS-B
Tue 06:13:13 AM 37.9570 21.0450 112° Southeast 499 574 37,000  Level FlightAware ADS-B
Tue 06:13:45 AM 37.9270 21.1340 113° Southeast 499 574 37,000  Level FlightAware ADS-B
Tue 06:14:21 AM 37.8960 21.2280 113° Southeast 500 575 37,000  Level FlightAware ADS-B
Tue 06:14:56 AM 37.8650 21.3230 112° Southeast 501 577 37,000  Level FlightAware ADS-B
Tue 06:15:35 AM 37.8290 21.4310 113° Southeast 502 578 37,000  Level FlightAware ADS-B
Tue 06:16:07 AM 37.8000 21.5180 113° Southeast 503 579 37,000  Level FlightAware ADS-B
Tue 06:16:42 AM 37.7680 21.6150 113° Southeast 502 578 37,000  Level FlightAware ADS-B
Tue 06:17:19 AM 37.7340 21.7150 113° Southeast 502 578 37,000  Level FlightAware ADS-B
Tue 06:17:54 AM 37.7030 21.8100 112° Southeast 503 579 37,000  Level FlightAware ADS-B
Tue 06:18:27 AM 37.6740 21.8940 114° Southeast 505 581 37,000  Level FlightAware ADS-B
Tue 06:19:01 AM 37.6410 21.9910 113° Southeast 505 581 37,000  Level FlightAware ADS-B
Tue 06:19:39 AM 37.6080 22.0890 113° Southeast 506 582 37,000  Level FlightAware ADS-B
Tue 06:20:09 AM 37.5790 22.1730 114° Southeast 507 583 37,000  Level FlightAware ADS-B
Tue 06:20:49 AM 37.5430 22.2790 113° Southeast 509 586 37,000  Level FlightAware ADS-B
Tue 06:21:21 AM 37.5130 22.3660 113° Southeast 509 586 37,000  Level FlightAware ADS-B
Tue 06:21:58 AM 37.4780 22.4700 113° Southeast 511 588 37,000  Level FlightAware ADS-B
Tue 06:22:34 AM 37.4430 22.5710 114° Southeast 511 588 37,000  Level FlightAware ADS-B
Tue 06:23:07 AM 37.4120 22.6580 114° Southeast 512 589 37,000  Level FlightAware ADS-B
Tue 06:23:43 AM 37.3770 22.7590 114° Southeast 510 587 37,000  Level FlightAware ADS-B
Tue 06:24:14 AM 37.3490 22.8430 113° Southeast 507 583 37,000  Level FlightAware ADS-B
Tue 06:24:53 AM 37.3120 22.9480 114° Southeast 505 581 37,000  Level FlightAware ADS-B
Tue 06:25:27 AM 37.2800 23.0390 114° Southeast 505 581 37,000  Level FlightAware ADS-B
Tue 06:26:04 AM 37.2460 23.1360 114° Southeast 504 580 37,000  Level FlightAware ADS-B
Tue 06:26:37 AM 37.2140 23.2270 114° Southeast 504 580 37,000  Level FlightAware ADS-B
Tue 06:27:12 AM 37.1810 23.3200 114° Southeast 505 581 37,000  Level FlightAware ADS-B
Tue 06:27:48 AM 37.1470 23.4160 114° Southeast 506 582 37,000  Level FlightAware ADS-B
Tue 06:28:25 AM 37.1120 23.5150 114° Southeast 504 580 37,000  Level FlightAware ADS-B
Tue 06:28:58 AM 37.0810 23.6010 114° Southeast 502 578 37,000  Level FlightAware ADS-B
Tue 06:29:33 AM 37.0480 23.6930 114° Southeast 502 578 37,000  Level FlightAware ADS-B
Tue 06:30:10 AM 37.0120 23.7910 115° Southeast 503 579 37,000  Level FlightAware ADS-B
Tue 06:30:42 AM 36.9820 23.8760 114° Southeast 503 579 37,000  Level FlightAware ADS-B
Tue 06:31:17 AM 36.9480 23.9690 115° Southeast 503 579 37,000  Level FlightAware ADS-B
Tue 06:31:54 AM 36.9130 24.0670 114° Southeast 503 579 37,000  Level FlightAware ADS-B
Tue 06:32:30 AM 36.8790 24.1620 114° Southeast 503 579 37,000  Level FlightAware ADS-B
Tue 06:33:02 AM 36.8470 24.2490 115° Southeast 503 579 37,000  Level FlightAware ADS-B
Tue 06:33:35 AM 36.8150 24.3340 115° Southeast 503 579 37,000  Level FlightAware ADS-B
Tue 06:34:14 AM 36.7770 24.4390 114° Southeast 502 578 37,000  Level FlightAware ADS-B
Tue 06:34:49 AM 36.7440 24.5290 115° Southeast 502 578 37,000  Level FlightAware ADS-B
Tue 06:35:21 AM 36.7130 24.6130 115° Southeast 502 578 37,000  Level FlightAware ADS-B
Tue 06:35:58 AM 36.6780 24.7130 114° Southeast 502 578 37,000  Level FlightAware ADS-B
Tue 06:36:32 AM 36.6450 24.8030 115° Southeast 502 578 37,000  Level FlightAware ADS-B
Tue 06:37:07 AM 36.6110 24.8950 115° Southeast 502 578 37,000  Level FlightAware ADS-B
Tue 06:37:42 AM 36.5780 24.9870 114° Southeast 503 579 37,000  Level FlightAware ADS-B
Tue 06:38:19 AM 36.5450 25.0770 115° Southeast 503 579 37,000  Level FlightAware ADS-B
Tue 06:38:51 AM 36.5120 25.1660 115° Southeast 503 579 37,000  Level FlightAware ADS-B
Tue 06:39:28 AM 36.4750 25.2660 115° Southeast 504 580 37,000  Level FlightAware ADS-B
Tue 06:40:03 AM 36.4420 25.3530 115° Southeast 504 580 37,000  Level FlightAware ADS-B
Tue 06:40:36 AM 36.4090 25.4420 115° Southeast 505 581 37,000  Level FlightAware ADS-B
Tue 06:41:11 AM 36.3770 25.5290 115° Southeast 505 581 37,000  Level FlightAware ADS-B
Tue 06:41:56 AM 36.3300 25.6530 115° Southeast 505 581 37,000  Level FlightAware ADS-B
Tue 06:42:31 AM 36.2960 25.7450 115° Southeast 506 582 37,000  Level FlightAware ADS-B
Tue 06:43:02 AM 36.2660 25.8260 115° Southeast 506 582 37,000  Level FlightAware ADS-B
Tue 06:43:36 AM 36.2350 25.9050 116° Southeast 507 583 37,000  Level FlightAware ADS-B
Tue 06:44:11 AM 36.1990 26.0030 114° Southeast 505 581 37,000  Level FlightAware ADS-B
Tue 06:44:46 AM 36.1640 26.0950 115° Southeast 505 581 37,000  Level FlightAware ADS-B
Tue 06:45:26 AM 36.1230 26.2030 115° Southeast 506 582 37,000  Level FlightAware ADS-B
Tue 06:46:01 AM 36.0870 26.2950 116° Southeast 503 579 37,000  Level FlightAware ADS-B
Tue 06:46:47 AM 36.0490 26.4000 114° Southeast 502 578 37,000  Level FlightAware ADS-B
Tue 06:47:31 AM 35.9970 26.5320 116° Southeast 500 575 37,000  Level FlightAware ADS-B
Tue 06:48:06 AM 35.9630 26.6210 115° Southeast 500 575 37,000  Level FlightAware ADS-B
Tue 06:48:52 AM 35.9250 26.7220 115° Southeast 500 575 37,000  Level FlightAware ADS-B
Tue 06:49:31 AM 35.8770 26.8430 116° Southeast 502 578 37,000  Level FlightAware ADS-B
Tue 06:50:10 AM 35.8380 26.9410 116° Southeast 503 579 37,000  Level FlightAware ADS-B
Tue 06:50:48 AM 35.8050 27.0280 115° Southeast 502 578 37,000  Level FlightAware ADS-B
Tue 06:51:23 AM 35.7640 27.1290 117° Southeast 504 580 37,000  Level FlightAware ADS-B
Tue 06:51:58 AM 35.7280 27.2220 115° Southeast 504 580 37,000  Level FlightAware ADS-B
Tue 06:52:30 AM 35.6950 27.3050 116° Southeast 505 581 37,000  Level FlightAware ADS-B
Tue 06:53:06 AM 35.6590 27.3980 115° Southeast 505 581 37,000  Level FlightAware ADS-B
Tue 06:53:42 AM 35.6220 27.4910 116° Southeast 506 582 37,000  Level FlightAware ADS-B
Tue 06:54:19 AM 35.5830 27.5860 117° Southeast 506 582 37,000  Level FlightAware ADS-B
Tue 06:54:49 AM 35.5520 27.6660 115° Southeast 507 583 37,000  Level FlightAware ADS-B
Tue 06:55:27 AM 35.5130 27.7620 117° Southeast 507 583 37,000  Level FlightAware ADS-B
Tue 06:56:03 AM 35.4760 27.8550 116° Southeast 507 583 37,000  Level FlightAware ADS-B
Tue 06:56:35 AM 35.4420 27.9400 116° Southeast 507 583 37,000  Level FlightAware ADS-B
Tue 06:57:11 AM 35.4050 28.0330 116° Southeast 507 583 37,000  Level FlightAware ADS-B
Tue 06:57:47 AM 35.3680 28.1230 117° Southeast 506 582 37,000  Level FlightAware ADS-B
Tue 06:58:21 AM 35.3320 28.2100 117° Southeast 506 582 37,000  Level FlightAware ADS-B
Tue 06:59:03 AM 35.2950 28.3040 116° Southeast 506 582 37,000  Level FlightAware ADS-B
Tue 06:59:39 AM 35.2500 28.4130 117° Southeast 507 583 37,000  Level FlightAware ADS-B
Tue 07:00:13 AM 35.2170 28.4950 116° Southeast 507 583 37,000  Level FlightAware ADS-B
Tue 07:00:47 AM 35.1790 28.5840 118° Southeast 508 585 37,000  Level FlightAware ADS-B
Tue 07:01:21 AM 35.1440 28.6710 116° Southeast 508 585 37,000  Level FlightAware ADS-B
Tue 07:01:56 AM 35.1110 28.7510 117° Southeast 508 585 37,000  Level FlightAware ADS-B
Tue 07:02:33 AM 35.0670 28.8560 117° Southeast 509 586 37,000  Level FlightAware ADS-B
Tue 07:03:06 AM 35.0320 28.9400 117° Southeast 508 585 37,000  Level FlightAware ADS-B
Tue 07:03:41 AM 34.9950 29.0300 117° Southeast 509 586 37,000  Level FlightAware ADS-B
Tue 07:04:19 AM 34.9610 29.1120 117° Southeast 509 586 37,000  Level FlightAware ADS-B
Tue 07:04:41 AM 34.9300 29.1830 118° Southeast 505 581 37,000  Level FlightAware ADS-B
Tue 07:05:11 AM 34.8970 29.2620 117° Southeast 509 586 37,000  Level FlightAware ADS-B
Tue 07:05:47 AM 34.8600 29.3490 117° Southeast 408 470 37,000  Level FlightAware ADS-B
Tue 07:06:23 AM 34.8200 29.4440 117° Southeast 506 582 37,000  Level FlightAware ADS-B
Tue 07:06:59 AM 34.7830 29.5330 117° Southeast 506 582 37,000  Level FlightAware ADS-B
Tue 07:07:49 AM 34.7280 29.6630 117° Southeast 506 582 37,000  Level FlightAware ADS-B
Tue 07:08:23 AM 34.6920 29.7460 118° Southeast 504 580 37,000  Level FlightAware ADS-B
Tue 07:08:59 AM 34.6560 29.8300 118° Southeast 504 580 37,000  Level FlightAware ADS-B
Tue 07:09:46 AM 34.6070 29.9370 119° Southeast 507 583 37,000  Level FlightAware ADS-B
Tue 07:10:22 AM 34.5740 30.0140 117° Southeast 507 583 37,000  Level FlightAware ADS-B
Tue 07:11:00 AM 34.5380 30.0960 118° Southeast 507 583 37,000  Level FlightAware ADS-B
Tue 07:11:30 AM 34.5100 30.1600 118° Southeast 507 583 37,000  Level FlightAware ADS-B
Tue 07:11:45 AM 34.4560 30.2490 126° Southeast 503 579 37,000  Level FlightAware ADS-B
Tue 07:12:21 AM 34.4160 30.3320 120° Southeast 503 579 37,000  Level FlightAware ADS-B
Tue 07:12:56 AM 34.3720 30.4230 120° Southeast 503 579 37,000  Level FlightAware ADS-B
Tue 07:13:31 AM 34.3350 30.5020 120° Southeast 503 579 37,000  Level FlightAware ADS-B
Tue 07:14:02 AM 34.2950 30.5850 120° Southeast 503 579 37,000  Level FlightAware ADS-B
Tue 07:14:43 AM 34.2470 30.6860 120° Southeast 507 583 37,000  Level FlightAware ADS-B
Tue 07:15:13 AM 34.2110 30.7590 121° Southeast 507 583 37,000  Level FlightAware ADS-B
Tue 07:15:47 AM 34.1710 30.8420 120° Southeast 508 585 37,000  Level FlightAware ADS-B
Tue 07:16:28 AM 34.1230 30.9400 121° Southeast 509 586 37,000  Level FlightAware ADS-B
Tue 07:17:04 AM 34.0790 31.0310 120° Southeast 510 587 37,000  Level FlightAware ADS-B
Tue 07:17:34 AM 34.0430 31.1050 120° Southeast 510 587 37,000  Level FlightAware ADS-B
Tue 07:18:10 AM 34.0020 31.1880 121° Southeast 511 588 37,000  Level FlightAware ADS-B
Tue 07:18:44 AM 33.9620 31.2720 120° Southeast 512 589 37,000  Level FlightAware ADS-B
Tue 07:19:24 AM 33.9100 31.3770 121° Southeast 513 590 37,000  Level FlightAware ADS-B
Tue 07:19:55 AM 33.8740 31.4480 121° Southeast 512 589 37,000  Level FlightAware ADS-B
Tue 07:20:30 AM 33.8310 31.5370 120° Southeast 513 590 37,000  Level FlightAware ADS-B
Tue 07:21:01 AM 33.7930 31.6130 121° Southeast 512 589 37,000  Level FlightAware ADS-B
Tue 07:21:41 AM 33.7440 31.7130 120° Southeast 512 589 37,000  Level FlightAware ADS-B
Tue 07:22:17 AM 33.7020 31.7960 121° Southeast 512 589 37,000  Level FlightAware ADS-B
Tue 07:22:52 AM 33.6590 31.8810 121° Southeast 512 589 37,000  Level FlightAware ADS-B
Tue 07:23:23 AM 33.6210 31.9590 120° Southeast 508 585 37,000  Level FlightAware ADS-B
Tue 07:23:59 AM 33.5770 32.0470 121° Southeast 509 586 37,000  Level FlightAware ADS-B
Tue 07:24:35 AM 33.5330 32.1340 121° Southeast 509 586 37,000  Level FlightAware ADS-B
Tue 07:25:11 AM 33.4910 32.2170 121° Southeast 510 587 37,000  Level FlightAware ADS-B
Tue 07:25:46 AM 33.4470 32.3050 121° Southeast 510 587 37,000 -257 Level FlightAware ADS-B
Tue 07:26:21 AM 33.4010 32.3950 121° Southeast 511 588 36,700 -930 Descending FlightAware ADS-B
Tue 07:26:57 AM 33.3580 32.4780 122° Southeast 508 585 35,900 -1,521 Descending FlightAware ADS-B
Tue 07:27:32 AM 33.3200 32.5530 121° Southeast 509 586 34,900 -1,818 Descending FlightAware ADS-B
Tue 07:28:03 AM 33.2770 32.6380 121° Southeast 508 585 33,900 -1,886 Descending FlightAware ADS-B
Tue 07:28:42 AM 33.2290 32.7320 121° Southeast 507 583 32,700 -2,000 Descending FlightAware ADS-B
Tue 07:29:18 AM 33.1850 32.8190 121° Southeast 509 586 31,400 -2,273 Descending FlightAware ADS-B
Tue 07:29:48 AM 33.1480 32.8920 121° Southeast 510 587 30,200 -2,282 Descending FlightAware ADS-B
Tue 07:30:29 AM 33.1010 32.9810 122° Southeast 518 596 28,700 -2,418 Descending FlightAware ADS-B
Tue 07:30:55 AM 33.0660 33.0500 121° Southeast 523 602 27,500 -1,571 Descending FlightAware ADS-B
Tue 07:31:53 AM 32.9950 33.1900 121° Southeast 517 595 26,500 -1,813 Descending FlightAware ADS-B
Tue 07:32:31 AM 32.9410 33.2920 122° Southeast 508 585 24,600 -2,400 Descending FlightAware ADS-B
Tue 07:33:08 AM 32.8970 33.3760 122° Southeast 496 571 23,500 -1,583 Descending FlightAware ADS-B
Tue 07:33:43 AM 32.8560 33.4550 122° Southeast 464 534 22,700 -1,268 Descending FlightAware ADS-B
Tue 07:34:19 AM 32.8160 33.5320 122° Southeast 430 495 22,000 -1,043 Descending FlightAware ADS-B
Tue 07:34:52 AM 32.7840 33.5920 122° Southeast 408 470 21,500 -957 Descending FlightAware ADS-B
Tue 07:35:28 AM 32.7490 33.6600 121° Southeast 378 435 20,900 -904 Descending FlightAware ADS-B
Tue 07:36:05 AM 32.7160 33.7230 122° Southeast 356 410 20,400 -1,217 Descending FlightAware ADS-B
Tue 07:36:37 AM 32.6880 33.7750 123° Southeast 349 402 19,500 -1,676 Descending FlightAware ADS-B
Tue 07:37:13 AM 32.6570 33.8350 122° Southeast 343 395 18,500 -1,583 Descending FlightAware ADS-B
Tue 07:37:49 AM 32.6280 33.8900 122° Southeast 338 389 17,600 -1,690 Descending FlightAware ADS-B
Tue 07:38:24 AM 32.5990 33.9450 122° Southeast 331 381 16,500 -1,909 Descending FlightAware ADS-B
Tue 07:38:55 AM 32.5740 33.9930 122° Southeast 326 375 15,500 -1,881 Descending FlightAware ADS-B
Tue 07:39:31 AM 32.5450 34.0480 122° Southeast 320 368 14,400 -1,865 Descending FlightAware ADS-B
Tue 07:40:09 AM 32.5150 34.1040 122° Southeast 312 359 13,200 -1,808 Descending FlightAware ADS-B
Tue 07:40:44 AM 32.4860 34.1500 127° Southeast 308 354 12,200 -1,733 Descending FlightAware ADS-B
Tue 07:40:54 AM 32.4750 34.1590 145° Southeast 307 353 11,900 -1,667 Descending FlightAware ADS-B
Tue 07:41:02 AM 32.4630 34.1640 161° South 306 352 11,700 -1,538 Descending FlightAware ADS-B
Tue 07:41:33 AM 32.4200 34.1730 170° South 300 345 10,900 -1,475 Descending FlightAware ADS-B
Tue 07:42:03 AM 32.3790 34.1780 174° South 298 343 10,200 -1,333 Descending FlightAware ADS-B
Tue 07:42:27 AM 32.3470 34.1830 172° South 294 338 9,700 -1,200 Descending FlightAware ADS-B
Tue 07:42:48 AM 32.3240 34.1880 170° South 291 335 9,300 -1,400 Descending FlightAware ADS-B
Tue 07:42:57 AM 32.3080 34.1970 155° Southeast 289 333 9,000 -1,579 Descending FlightAware ADS-B
Tue 07:43:07 AM 32.2990 34.2060 140° Southeast 287 330 8,800 -1,154 Descending FlightAware ADS-B
Tue 07:43:23 AM 32.2850 34.2230 134° Southeast 284 327 8,500 -1,297 Descending FlightAware ADS-B
Tue 07:43:44 AM 32.2640 34.2480 135° Southeast 281 323 8,000 -1,200 Descending FlightAware ADS-B
Tue 07:44:03 AM 32.2470 34.2690 134° Southeast 275 316 7,700 -789 Descending FlightAware ADS-B
Tue 07:44:22 AM 32.2320 34.2870 135° Southeast 265 305 7,500 -360 Descending FlightAware ADS-B
Tue 07:44:53 AM 32.2090 34.3140 135° Southeast 262 302 7,400 -787 Descending FlightAware ADS-B
Tue 07:45:23 AM 32.2090 34.3140 135° Southeast 256 295 6,700 -1,688 Descending FlightAware ADS-B
Tue 07:45:57 AM 32.1530 34.3800 135° Southeast 247 284 5,600 -1,130 Descending FlightAware ADS-B
Tue 07:46:32 AM 32.1270 34.4110 135° Southeast 247 284 5,400 -618 Descending FlightAware ADS-B
Tue 07:47:05 AM 32.1250 34.4130 140° Southeast 246 283 4,900 -1,696 Descending FlightAware ADS-B
Tue 07:47:18 AM 32.0890 34.4560 135° Southeast 233 268 4,100 -1,946 Descending FlightAware ADS-B
Tue 07:47:42 AM 32.0720 34.4760 135° Southeast 232 267 3,700 -1,091 Descending FlightAware ADS-B
Tue 07:48:02 AM 32.0570 34.4950 133° Southeast 230 265 3,300 -1,167 Descending FlightAware ADS-B
Tue 07:48:18 AM 32.0450 34.5090 135° Southeast 229 264 3,000 -800 Descending FlightAware ADS-B
Tue 07:48:32 AM 32.0340 34.5230 133° Southeast 232 267 2,900 -300 Descending FlightAware ADS-B
Tue 07:48:38 AM 32.0310 34.5290 121° Southeast 233 268 2,900  Level FlightAware ADS-B
Tue 07:48:52 AM 32.0260 34.5460 109° East 227 261 2,900  Level FlightAware ADS-B
Tue 07:49:03 AM 32.0230 34.5560 109° East 227 261 2,900  Level FlightAware ADS-B
Tue 07:49:27 AM 32.0150 34.5830 109° East 228 262 2,900  Level FlightAware ADS-B
Tue 07:49:55 AM 32.0070 34.6110 109° East 228 262 2,900 -720 Level FlightAware ADS-B
Tue 07:50:17 AM 31.9980 34.6460 107° East 230 265 2,300 -857 Descending FlightAware ADS-B
Tue 07:50:37 AM 31.9910 34.6700 109° East 228 262 2,300  Level FlightAware ADS-B
Tue 07:51:03 AM 31.9840 34.6960 108° East 228 262 2,300 -237 Level FlightAware ADS-B
Tue 07:51:53 AM 31.9910 34.6700 288° West 192 221 2,000 -522 Descending FlightAware ADS-B
Tue 07:52:12 AM 31.9980 34.7620 85° East 163 188 1,700 -857 Descending FlightAware ADS-B
Tue 07:52:28 AM 31.9990 34.7720 83° East 151 174 1,500 -273 Descending FlightAware ADS-B
Tue 07:52:56 AM 32.0020 34.7910 79° East 151 174 1,500 -840 Level FlightAware ADS-B
Tue 07:53:18 AM 32.0060 34.8160 79° East 144 166 800 -1,176 Descending FlightAware ADS-B
Tue 07:53:47 AM 32.0090 34.8370 80° East 148 170 500 -387 Descending FlightAware ADS-B
Tue 07:54:20 AM 32.0130 34.8610 79° East 149 171 400 -182 Descending FlightAware ADS-B

Login

Don't have an account? Register now (free) for customized features, flight alerts, and more!